Wetterdaten: Donnerstag, 17.04.2014
Datum Zeit Temp. Aussen +5cm Feuchte Auss Luftdruck Regen Sonnenschein Regendauer UV Solar Windben
17.04.2014 00:00 7,6 C 5,0 C 73 % 1026,3 hPa 0,0 l/m 0 min 0 min 0,0 UV-I 0 W/m 2,6 km/h (1 Bft)
17.04.2014 00:02 7,8 C 5,0 C 72 % 1026,3 hPa 0,0 l/m 0 min 0 min 0,0 UV-I 0 W/m 0,0 km/h (0 Bft)
17.04.2014 00:06 8,0 C 5,0 C 70 % 1026,3 hPa 0,0 l/m 0 min 0 min 0,0 UV-I 0 W/m 0,0 km/h (0 Bft)
17.04.2014 00:08 8,1 C 5,0 C 69 % 1026,3 hPa 0,0 l/m 0 min 0 min 0,0 UV-I 0 W/m 5,1 km/h (1 Bft)
17.04.2014 00:10 8,2 C 5,0 C 69 % 1026,3 hPa 0,0 l/m 0 min 0 min 0,0 UV-I 0 W/m 7,7 km/h (2 Bft)
17.04.2014 00:12 8,3 C 5,6 C 68 % 1026,3 hPa 0,0 l/m 0 min 0 min 0,0 UV-I 0 W/m 0,0 km/h (0 Bft)
17.04.2014 00:14 8,3 C 5,6 C 68 % 1026,3 hPa 0,0 l/m 0 min 0 min 0,0 UV-I 0 W/m 0,0 km/h (0 Bft)
17.04.2014 00:16 8,4 C 5,6 C 67 % 1026,3 hPa 0,0 l/m 0 min 0 min 0,0 UV-I 0 W/m 0,0 km/h (0 Bft)
17.04.2014 00:18 8,4 C 5,6 C 67 % 1026,4 hPa 0,0 l/m 0 min 0 min 0,0 UV-I 0 W/m 0,0 km/h (0 Bft)
17.04.2014 00:20 8,4 C 5,6 C 67 % 1026,3 hPa 0,0 l/m 0 min 0 min 0,0 UV-I 0 W/m 0,0 km/h (0 Bft)
17.04.2014 00:22 8,4 C 5,6 C 67 % 1026,3 hPa 0,0 l/m 0 min 0 min 0,0 UV-I 0 W/m 2,6 km/h (1 Bft)
17.04.2014 00:24 8,4 C 5,6 C 67 % 1026,3 hPa 0,0 l/m 0 min 0 min 0,0 UV-I 0 W/m 0,0 km/h (0 Bft)
17.04.2014 00:26 8,4 C 5,6 C 67 % 1026,3 hPa 0,0 l/m 0 min 0 min 0,0 UV-I 0 W/m 0,0 km/h (0 Bft)
17.04.2014 00:28 8,4 C 5,6 C 67 % 1026,3 hPa 0,0 l/m 0 min 0 min 0,0 UV-I 0 W/m 0,0 km/h (0 Bft)
17.04.2014 00:30 8,3 C 5,6 C 67 % 1026,3 hPa 0,0 l/m 0 min 0 min 0,0 UV-I 0 W/m 0,0 km/h (0 Bft)
17.04.2014 00:32 8,2 C 5,6 C 68 % 1026,3 hPa 0,0 l/m 0 min 0 min 0,0 UV-I 0 W/m 0,0 km/h (0 Bft)
17.04.2014 00:34 8,2 C 5,6 C 68 % 1026,4 hPa 0,0 l/m 0 min 0 min 0,0 UV-I 0 W/m 0,0 km/h (0 Bft)
17.04.2014 00:36 8,1 C 5,6 C 68 % 1026,4 hPa 0,0 l/m 0 min 0 min 0,0 UV-I 0 W/m 0,0 km/h (0 Bft)
17.04.2014 00:38 8,1 C 5,6 C 68 % 1026,5 hPa 0,0 l/m 0 min 0 min 0,0 UV-I 0 W/m 0,0 km/h (0 Bft)
17.04.2014 00:40 8,0 C 5,6 C 68 % 1026,4 hPa 0,0 l/m 0 min 0 min 0,0 UV-I 0 W/m 0,0 km/h (0 Bft)
17.04.2014 00:42 7,9 C 5,6 C 68 % 1026,4 hPa 0,0 l/m 0 min 0 min 0,0 UV-I 0 W/m 0,0 km/h (0 Bft)
17.04.2014 00:44 7,9 C 5,0 C 68 % 1026,5 hPa 0,0 l/m 0 min 0 min 0,0 UV-I 0 W/m 0,0 km/h (0 Bft)
17.04.2014 00:46 7,9 C 5,0 C 68 % 1026,5 hPa 0,0 l/m 0 min 0 min 0,0 UV-I 0 W/m 0,0 km/h (0 Bft)
17.04.2014 00:48 7,8 C 5,0 C 69 % 1026,5 hPa 0,0 l/m 0 min 0 min 0,0 UV-I 0 W/m 2,6 km/h (1 Bft)
17.04.2014 00:50 7,7 C 5,0 C 69 % 1026,5 hPa 0,0 l/m 0 min 0 min 0,0 UV-I 0 W/m 0,0 km/h (0 Bft)
17.04.2014 00:52 7,6 C 5,0 C 69 % 1026,5 hPa 0,0 l/m 0 min 0 min 0,0 UV-I 0 W/m 0,0 km/h (0 Bft)
17.04.2014 00:54 7,6 C 5,0 C 69 % 1026,5 hPa 0,0 l/m 0 min 0 min 0,0 UV-I 0 W/m 0,0 km/h (0 Bft)
17.04.2014 00:56 7,5 C 5,0 C 70 % 1026,4 hPa 0,0 l/m 0 min 0 min 0,0 UV-I 0 W/m 0,0 km/h (0 Bft)
17.04.2014 00:58 7,4 C 5,0 C 70 % 1026,3 hPa 0,0 l/m 0 min 0 min 0,0 UV-I 0 W/m 2,6 km/h (1 Bft)
17.04.2014 01:00 7,4 C 5,0 C 70 % 1026,4 hPa 0,0 l/m 0 min 0 min 0,0 UV-I 0 W/m 5,1 km/h (1 Bft)
17.04.2014 01:04 7,4 C 5,0 C 70 % 1026,3 hPa 0,0 l/m 0 min 0 min 0,0 UV-I 0 W/m 0,0 km/h (0 Bft)
17.04.2014 01:06 7,4 C 5,0 C 70 % 1026,3 hPa 0,0 l/m 0 min 0 min 0,0 UV-I 0 W/m 0,0 km/h (0 Bft)
17.04.2014 01:08 7,4 C 5,0 C 71 % 1026,3 hPa 0,0 l/m 0 min 0 min 0,0 UV-I 0 W/m 0,0 km/h (0 Bft)
17.04.2014 01:10 7,3 C 5,0 C 71 % 1026,3 hPa 0,0 l/m 0 min 0 min 0,0 UV-I 0 W/m 0,0 km/h (0 Bft)
17.04.2014 01:12 7,2 C 5,0 C 71 % 1026,3 hPa 0,0 l/m 0 min 0 min 0,0 UV-I 0 W/m 0,0 km/h (0 Bft)
17.04.2014 01:14 7,2 C 5,0 C 71 % 1026,3 hPa 0,0 l/m 0 min 0 min 0,0 UV-I 0 W/m 0,0 km/h (0 Bft)
17.04.2014 01:16 7,1 C 5,0 C 71 % 1026,3 hPa 0,0 l/m 0 min 0 min 0,0 UV-I 0 W/m 0,0 km/h (0 Bft)
17.04.2014 01:18 7,1 C 5,0 C 71 % 1026,3 hPa 0,0 l/m 0 min 0 min 0,0 UV-I 0 W/m 0,0 km/h (0 Bft)
17.04.2014 01:20 7,1 C 5,0 C 72 % 1026,4 hPa 0,0 l/m 0 min 0 min 0,0 UV-I 0 W/m 0,0 km/h (0 Bft)
17.04.2014 01:22 7,1 C 5,0 C 72 % 1026,2 hPa 0,0 l/m 0 min 0 min 0,0 UV-I 0 W/m 0,0 km/h (0 Bft)
17.04.2014 01:24 7,0 C 5,0 C 72 % 1026,2 hPa 0,0 l/m 0 min 0 min 0,0 UV-I 0 W/m 0,0 km/h (0 Bft)
17.04.2014 01:26 7,0 C 5,0 C 72 % 1026,3 hPa 0,0 l/m 0 min 0 min 0,0 UV-I 0 W/m 0,0 km/h (0 Bft)
17.04.2014 01:28 7,0 C 5,0 C 72 % 1026,2 hPa 0,0 l/m 0 min 0 min 0,0 UV-I 0 W/m 2,6 km/h (1 Bft)
17.04.2014 01:30 7,0 C 5,0 C 72 % 1026,2 hPa 0,0 l/m 0 min 0 min 0,0 UV-I 0 W/m 0,0 km/h (0 Bft)
17.04.2014 01:32 7,1 C 5,0 C 72 % 1026,2 hPa 0,0 l/m 0 min 0 min 0,0 UV-I 0 W/m 2,6 km/h (1 Bft)
17.04.2014 01:34 7,1 C 5,0 C 72 % 1026,2 hPa 0,0 l/m 0 min 0 min 0,0 UV-I 0 W/m 7,7 km/h (2 Bft)
17.04.2014 01:36 7,1 C 5,0 C 71 % 1026,2 hPa 0,0 l/m 0 min 0 min 0,0 UV-I 0 W/m 7,7 km/h (2 Bft)
17.04.2014 01:38 7,1 C 5,6 C 71 % 1026,2 hPa 0,0 l/m 0 min 0 min 0,0 UV-I 0 W/m 7,7 km/h (2 Bft)
17.04.2014 01:40 7,2 C 5,6 C 71 % 1026,2 hPa 0,0 l/m 0 min 0 min 0,0 UV-I 0 W/m 2,6 km/h (1 Bft)
17.04.2014 01:42 7,2 C 5,6 C 71 % 1026,2 hPa 0,0 l/m 0 min 0 min 0,0 UV-I 0 W/m 2,6 km/h (1 Bft)
17.04.2014 01:44 7,1 C 5,0 C 71 % 1026,2 hPa 0,0 l/m 0 min 0 min 0,0 UV-I 0 W/m 0,0 km/h (0 Bft)
17.04.2014 01:46 7,1 C 5,0 C 71 % 1026,2 hPa 0,0 l/m 0 min 0 min 0,0 UV-I 0 W/m 0,0 km/h (0 Bft)
17.04.2014 01:48 7,1 C 5,0 C 71 % 1026,3 hPa 0,0 l/m 0 min 0 min 0,0 UV-I 0 W/m 0,0 km/h (0 Bft)
17.04.2014 01:50 7,0 C 5,0 C 71 % 1026,2 hPa 0,0 l/m 0 min 0 min 0,0 UV-I 0 W/m 7,7 km/h (2 Bft)
17.04.2014 01:52 7,0 C 5,0 C 71 % 1026,1 hPa 0,0 l/m 0 min 0 min 0,0 UV-I 0 W/m 10,3 km/h (2 Bft)
17.04.2014 01:54 7,0 C 5,0 C 71 % 1026,1 hPa 0,0 l/m 0 min 0 min 0,0 UV-I 0 W/m 5,1 km/h (1 Bft)
17.04.2014 01:56 6,9 C 5,0 C 71 % 1026,0 hPa 0,0 l/m 0 min 0 min 0,0 UV-I 0 W/m 10,3 km/h (2 Bft)
17.04.2014 01:58 6,9 C 5,0 C 71 % 1026,0 hPa 0,0 l/m 0 min 0 min 0,0 UV-I 0 W/m 2,6 km/h (1 Bft)
17.04.2014 02:00 6,9 C 5,0 C 71 % 1026,0 hPa 0,0 l/m 0 min 0 min 0,0 UV-I 0 W/m 2,6 km/h (1 Bft)
17.04.2014 02:02 6,9 C 5,0 C 71 % 1025,9 hPa 0,0 l/m 0 min 0 min 0,0 UV-I 0 W/m 5,1 km/h (1 Bft)
17.04.2014 02:06 6,8 C 5,0 C 72 % 1025,9 hPa 0,0 l/m 0 min 0 min 0,0 UV-I 0 W/m 5,1 km/h (1 Bft)
17.04.2014 02:08 6,8 C 5,0 C 72 % 1025,9 hPa 0,0 l/m 0 min 0 min 0,0 UV-I 0 W/m 2,6 km/h (1 Bft)
17.04.2014 02:10 6,7 C 5,0 C 72 % 1025,9 hPa 0,0 l/m 0 min 0 min 0,0 UV-I 0 W/m 0,0 km/h (0 Bft)
17.04.2014 02:12 6,7 C 5,0 C 72 % 1025,9 hPa 0,0 l/m 0 min 0 min 0,0 UV-I 0 W/m 7,7 km/h (2 Bft)
17.04.2014 02:14 6,6 C 5,0 C 72 % 1025,9 hPa 0,0 l/m 0 min 0 min 0,0 UV-I 0 W/m 0,0 km/h (0 Bft)
17.04.2014 02:16 6,6 C 5,0 C 73 % 1025,9 hPa 0,0 l/m 0 min 0 min 0,0 UV-I 0 W/m 0,0 km/h (0 Bft)
17.04.2014 02:18 6,6 C 5,0 C 73 % 1025,9 hPa 0,0 l/m 0 min 0 min 0,0 UV-I 0 W/m 0,0 km/h (0 Bft)
17.04.2014 02:20 6,5 C 5,0 C 73 % 1025,9 hPa 0,0 l/m 0 min 0 min 0,0 UV-I 0 W/m 0,0 km/h (0 Bft)
17.04.2014 02:22 6,5 C 5,0 C 73 % 1026,0 hPa 0,0 l/m 0 min 0 min 0,0 UV-I 0 W/m 0,0 km/h (0 Bft)
17.04.2014 02:24 6,4 C 4,4 C 73 % 1026,0 hPa 0,0 l/m 0 min 0 min 0,0 UV-I 0 W/m 0,0 km/h (0 Bft)
17.04.2014 02:26 6,4 C 4,4 C 73 % 1026,1 hPa 0,0 l/m 0 min 0 min 0,0 UV-I 0 W/m 0,0 km/h (0 Bft)
17.04.2014 02:28 6,4 C 4,4 C 73 % 1026,2 hPa 0,0 l/m 0 min 0 min 0,0 UV-I 0 W/m 0,0 km/h (0 Bft)
17.04.2014 02:30 6,4 C 4,4 C 74 % 1026,2 hPa 0,0 l/m 0 min 0 min 0,0 UV-I 0 W/m 0,0 km/h (0 Bft)
17.04.2014 02:32 6,3 C 4,4 C 74 % 1026,1 hPa 0,0 l/m 0 min 0 min 0,0 UV-I 0 W/m 0,0 km/h (0 Bft)
17.04.2014 02:34 6,3 C 4,4 C 73 % 1026,1 hPa 0,0 l/m 0 min 0 min 0,0 UV-I 0 W/m 0,0 km/h (0 Bft)
17.04.2014 02:36 6,2 C 4,4 C 74 % 1026,0 hPa 0,0 l/m 0 min 0 min 0,0 UV-I 0 W/m 0,0 km/h (0 Bft)
17.04.2014 02:38 6,2 C 4,4 C 74 % 1026,0 hPa 0,0 l/m 0 min 0 min 0,0 UV-I 0 W/m 2,6 km/h (1 Bft)
17.04.2014 02:40 6,2 C 4,4 C 74 % 1026,0 hPa 0,0 l/m 0 min 0 min 0,0 UV-I 0 W/m 0,0 km/h (0 Bft)
17.04.2014 02:42 6,1 C 4,4 C 74 % 1025,9 hPa 0,0 l/m 0 min 0 min 0,0 UV-I 0 W/m 0,0 km/h (0 Bft)
17.04.2014 02:44 6,1 C 4,4 C 74 % 1026,0 hPa 0,0 l/m 0 min 0 min 0,0 UV-I 0 W/m 2,6 km/h (1 Bft)
17.04.2014 02:46 6,2 C 4,4 C 74 % 1025,9 hPa 0,0 l/m 0 min 0 min 0,0 UV-I 0 W/m 0,0 km/h (0 Bft)
17.04.2014 02:48 6,2 C 4,4 C 74 % 1025,9 hPa 0,0 l/m 0 min 0 min 0,0 UV-I 0 W/m 0,0 km/h (0 Bft)
17.04.2014 02:50 6,1 C 4,4 C 74 % 1026,0 hPa 0,0 l/m 0 min 0 min 0,0 UV-I 0 W/m 0,0 km/h (0 Bft)
17.04.2014 02:52 6,1 C 4,4 C 75 % 1026,0 hPa 0,0 l/m 0 min 0 min 0,0 UV-I 0 W/m 0,0 km/h (0 Bft)
17.04.2014 02:54 6,1 C 4,4 C 75 % 1025,9 hPa 0,0 l/m 0 min 0 min 0,0 UV-I 0 W/m 2,6 km/h (1 Bft)
17.04.2014 02:56 6,1 C 4,4 C 75 % 1025,9 hPa 0,0 l/m 0 min 0 min 0,0 UV-I 0 W/m 0,0 km/h (0 Bft)
17.04.2014 02:58 6,0 C 4,4 C 75 % 1025,8 hPa 0,0 l/m 0 min 0 min 0,0 UV-I 0 W/m 0,0 km/h (0 Bft)
17.04.2014 03:00 6,0 C 4,4 C 75 % 1025,7 hPa 0,0 l/m 0 min 0 min 0,0 UV-I 0 W/m 2,6 km/h (1 Bft)
17.04.2014 03:02 6,0 C 4,4 C 75 % 1025,7 hPa 0,0 l/m 0 min 0 min 0,0 UV-I 0 W/m 2,6 km/h (1 Bft)
17.04.2014 03:04 6,0 C 4,4 C 75 % 1025,7 hPa 0,0 l/m 0 min 0 min 0,0 UV-I 0 W/m 7,7 km/h (2 Bft)
17.04.2014 03:06 6,0 C 4,4 C 75 % 1025,7 hPa 0,0 l/m 0 min 0 min 0,0 UV-I 0 W/m 2,6 km/h (1 Bft)
17.04.2014 03:08 5,9 C 4,4 C 75 % 1025,8 hPa 0,0 l/m 0 min 0 min 0,0 UV-I 0 W/m 0,0 km/h (0 Bft)
17.04.2014 03:10 5,9 C 4,4 C 75 % 1025,7 hPa 0,0 l/m 0 min 0 min 0,0 UV-I 0 W/m 10,3 km/h (2 Bft)
17.04.2014 03:12 5,9 C 4,4 C 75 % 1025,7 hPa 0,0 l/m 0 min 0 min 0,0 UV-I 0 W/m 7,7 km/h (2 Bft)
17.04.2014 03:14 5,9 C 4,4 C 75 % 1025,7 hPa 0,0 l/m 0 min 0 min 0,0 UV-I 0 W/m 0,0 km/h (0 Bft)
17.04.2014 03:16 5,9 C 4,4 C 75 % 1025,7 hPa 0,0 l/m 0 min 0 min 0,0 UV-I 0 W/m 0,0 km/h (0 Bft)
17.04.2014 03:18 5,8 C 4,4 C 75 % 1025,7 hPa 0,0 l/m 0 min 0 min 0,0 UV-I 0 W/m 0,0 km/h (0 Bft)
17.04.2014 03:20 5,8 C 3,9 C 75 % 1025,7 hPa 0,0 l/m 0 min 0 min 0,0 UV-I 0 W/m 0,0 km/h (0 Bft)
17.04.2014 03:22 5,8 C 3,9 C 76 % 1025,7 hPa 0,0 l/m 0 min 0 min 0,0 UV-I 0 W/m 0,0 km/h (0 Bft)
17.04.2014 03:24 5,7 C 3,9 C 76 % 1025,7 hPa 0,0 l/m 0 min 0 min 0,0 UV-I 0 W/m 0,0 km/h (0 Bft)
17.04.2014 03:26 5,7 C 3,9 C 76 % 1025,7 hPa 0,0 l/m 0 min 0 min 0,0 UV-I 0 W/m 0,0 km/h (0 Bft)
17.04.2014 03:28 5,6 C 3,9 C 76 % 1025,7 hPa 0,0 l/m 0 min 0 min 0,0 UV-I 0 W/m 0,0 km/h (0 Bft)
17.04.2014 03:30 5,6 C 3,9 C 76 % 1025,7 hPa 0,0 l/m 0 min 0 min 0,0 UV-I 0 W/m 0,0 km/h (0 Bft)
17.04.2014 03:32 5,6 C 3,9 C 77 % 1025,7 hPa 0,0 l/m 0 min 0 min 0,0 UV-I 0 W/m 7,7 km/h (2 Bft)
17.04.2014 03:34 5,6 C 3,9 C 77 % 1025,6 hPa 0,0 l/m 0 min 0 min 0,0 UV-I 0 W/m 7,7 km/h (2 Bft)
17.04.2014 03:36 5,6 C 3,9 C 77 % 1025,6 hPa 0,0 l/m 0 min 0 min 0,0 UV-I 0 W/m 7,7 km/h (2 Bft)
17.04.2014 03:38 5,6 C 3,9 C 77 % 1025,6 hPa 0,0 l/m 0 min 0 min 0,0 UV-I 0 W/m 10,3 km/h (2 Bft)
17.04.2014 03:40 5,6 C 3,9 C 77 % 1025,6 hPa 0,0 l/m 0 min 0 min 0,0 UV-I 0 W/m 5,1 km/h (1 Bft)
17.04.2014 03:42 5,5 C 3,9 C 77 % 1025,5 hPa 0,0 l/m 0 min 0 min 0,0 UV-I 0 W/m 0,0 km/h (0 Bft)
17.04.2014 03:44 5,5 C 3,9 C 77 % 1025,5 hPa 0,0 l/m 0 min 0 min 0,0 UV-I 0 W/m 5,1 km/h (1 Bft)
17.04.2014 03:46 5,5 C 3,9 C 77 % 1025,5 hPa 0,0 l/m 0 min 0 min 0,0 UV-I 0 W/m 0,0 km/h (0 Bft)
17.04.2014 03:48 5,5 C 3,9 C 77 % 1025,5 hPa 0,0 l/m 0 min 0 min 0,0 UV-I 0 W/m 5,1 km/h (1 Bft)
17.04.2014 03:50 5,5 C 3,9 C 77 % 1025,5 hPa 0,0 l/m 0 min 0 min 0,0 UV-I 0 W/m 7,7 km/h (2 Bft)
17.04.2014 03:52 5,5 C 3,9 C 77 % 1025,5 hPa 0,0 l/m 0 min 0 min 0,0 UV-I 0 W/m 5,1 km/h (1 Bft)
17.04.2014 03:54 5,4 C 3,9 C 77 % 1025,5 hPa 0,0 l/m 0 min 0 min 0,0 UV-I 0 W/m 2,6 km/h (1 Bft)
17.04.2014 03:56 5,5 C 3,9 C 77 % 1025,5 hPa 0,0 l/m 0 min 0 min 0,0 UV-I 0 W/m 5,1 km/h (1 Bft)
17.04.2014 03:58 5,4 C 3,9 C 77 % 1025,5 hPa 0,0 l/m 0 min 0 min 0,0 UV-I 0 W/m 0,0 km/h (0 Bft)
17.04.2014 04:00 5,4 C 3,9 C 77 % 1025,5 hPa 0,0 l/m 0 min 0 min 0,0 UV-I 0 W/m 0,0 km/h (0 Bft)
17.04.2014 04:02 5,4 C 3,9 C 77 % 1025,5 hPa 0,0 l/m 0 min 0 min 0,0 UV-I 0 W/m 0,0 km/h (0 Bft)
17.04.2014 04:06 5,4 C 3,9 C 78 % 1025,5 hPa 0,0 l/m 0 min 0 min 0,0 UV-I 0 W/m 5,1 km/h (1 Bft)
17.04.2014 04:08 5,3 C 3,9 C 78 % 1025,6 hPa 0,0 l/m 0 min 0 min 0,0 UV-I 0 W/m 7,7 km/h (2 Bft)
17.04.2014 04:10 5,3 C 3,9 C 78 % 1025,5 hPa 0,0 l/m 0 min 0 min 0,0 UV-I 0 W/m 0,0 km/h (0 Bft)
17.04.2014 04:12 5,3 C 3,9 C 78 % 1025,5 hPa 0,0 l/m 0 min 0 min 0,0 UV-I 0 W/m 0,0 km/h (0 Bft)
17.04.2014 04:14 5,2 C 3,9 C 78 % 1025,5 hPa 0,0 l/m 0 min 0 min 0,0 UV-I 0 W/m 0,0 km/h (0 Bft)
17.04.2014 04:16 5,2 C 3,9 C 78 % 1025,5 hPa 0,0 l/m 0 min 0 min 0,0 UV-I 0 W/m 0,0 km/h (0 Bft)
17.04.2014 04:18 5,2 C 3,9 C 78 % 1025,6 hPa 0,0 l/m 0 min 0 min 0,0 UV-I 0 W/m 0,0 km/h (0 Bft)
17.04.2014 04:20 5,2 C 3,9 C 79 % 1025,6 hPa 0,0 l/m 0 min 0 min 0,0 UV-I 0 W/m 0,0 km/h (0 Bft)
17.04.2014 04:22 5,2 C 3,9 C 79 % 1025,5 hPa 0,0 l/m 0 min 0 min 0,0 UV-I 0 W/m 0,0 km/h (0 Bft)
17.04.2014 04:24 5,2 C 3,9 C 79 % 1025,5 hPa 0,0 l/m 0 min 0 min 0,0 UV-I 0 W/m 10,3 km/h (2 Bft)
17.04.2014 04:26 5,2 C 3,9 C 79 % 1025,5 hPa 0,0 l/m 0 min 0 min 0,0 UV-I 0 W/m 5,1 km/h (1 Bft)
17.04.2014 04:28 5,2 C 3,9 C 79 % 1025,5 hPa 0,0 l/m 0 min 0 min 0,0 UV-I 0 W/m 10,3 km/h (2 Bft)
17.04.2014 04:30 5,2 C 3,9 C 79 % 1025,5 hPa 0,0 l/m 0 min 0 min 0,0 UV-I 0 W/m 7,7 km/h (2 Bft)
17.04.2014 04:32 5,2 C 3,9 C 79 % 1025,5 hPa 0,0 l/m 0 min 0 min 0,0 UV-I 0 W/m 7,7 km/h (2 Bft)
17.04.2014 04:34 5,2 C 3,9 C 79 % 1025,4 hPa 0,0 l/m 0 min 0 min 0,0 UV-I 0 W/m 0,0 km/h (0 Bft)
17.04.2014 04:36 5,2 C 3,9 C 79 % 1025,5 hPa 0,0 l/m 0 min 0 min 0,0 UV-I 0 W/m 5,1 km/h (1 Bft)
17.04.2014 04:38 5,1 C 3,9 C 79 % 1025,4 hPa 0,0 l/m 0 min 0 min 0,0 UV-I 0 W/m 0,0 km/h (0 Bft)
17.04.2014 04:40 5,1 C 3,9 C 79 % 1025,4 hPa 0,0 l/m 0 min 0 min 0,0 UV-I 0 W/m 7,7 km/h (2 Bft)
17.04.2014 04:42 5,0 C 3,3 C 79 % 1025,3 hPa 0,0 l/m 0 min 0 min 0,0 UV-I 0 W/m 7,7 km/h (2 Bft)
17.04.2014 04:44 5,0 C 3,3 C 79 % 1025,3 hPa 0,0 l/m 0 min 0 min 0,0 UV-I 0 W/m 7,7 km/h (2 Bft)
17.04.2014 04:46 4,9 C 3,3 C 79 % 1025,3 hPa 0,0 l/m 0 min 0 min 0,0 UV-I 0 W/m 10,3 km/h (2 Bft)
17.04.2014 04:48 4,9 C 3,3 C 80 % 1025,2 hPa 0,0 l/m 0 min 0 min 0,0 UV-I 0 W/m 0,0 km/h (0 Bft)
17.04.2014 04:50 4,9 C 3,3 C 80 % 1025,2 hPa 0,0 l/m 0 min 0 min 0,0 UV-I 0 W/m 5,1 km/h (1 Bft)
17.04.2014 04:52 4,8 C 3,3 C 80 % 1025,1 hPa 0,0 l/m 0 min 0 min 0,0 UV-I 0 W/m 5,1 km/h (1 Bft)
17.04.2014 04:54 4,8 C 3,3 C 80 % 1025,2 hPa 0,0 l/m 0 min 0 min 0,0 UV-I 0 W/m 7,7 km/h (2 Bft)
17.04.2014 04:56 4,8 C 3,3 C 80 % 1025,2 hPa 0,0 l/m 0 min 0 min 0,0 UV-I 0 W/m 5,1 km/h (1 Bft)
17.04.2014 04:58 4,7 C 3,3 C 80 % 1025,2 hPa 0,0 l/m 0 min 0 min 0,0 UV-I 0 W/m 2,6 km/h (1 Bft)
17.04.2014 05:00 4,7 C 3,3 C 80 % 1025,2 hPa 0,0 l/m 0 min 0 min 0,0 UV-I 0 W/m 10,3 km/h (2 Bft)
17.04.2014 05:02 4,7 C 3,3 C 80 % 1025,2 hPa 0,0 l/m 0 min 0 min 0,0 UV-I 0 W/m 7,7 km/h (2 Bft)
17.04.2014 05:06 4,7 C 3,3 C 80 % 1025,2 hPa 0,0 l/m 0 min 0 min 0,0 UV-I 0 W/m 10,3 km/h (2 Bft)
17.04.2014 05:08 4,6 C 3,3 C 80 % 1025,2 hPa 0,0 l/m 0 min 0 min 0,0 UV-I 0 W/m 0,0 km/h (0 Bft)
17.04.2014 05:10 4,6 C 3,3 C 80 % 1025,2 hPa 0,0 l/m 0 min 0 min 0,0 UV-I 0 W/m 5,1 km/h (1 Bft)
17.04.2014 05:12 4,6 C 3,3 C 80 % 1025,2 hPa 0,0 l/m 0 min 0 min 0,0 UV-I 0 W/m 10,3 km/h (2 Bft)
17.04.2014 05:14 4,6 C 3,3 C 80 % 1025,0 hPa 0,0 l/m 0 min 0 min 0,0 UV-I 0 W/m 0,0 km/h (0 Bft)
17.04.2014 05:16 4,6 C 3,3 C 80 % 1025,0 hPa 0,0 l/m 0 min 0 min 0,0 UV-I 0 W/m 5,1 km/h (1 Bft)
17.04.2014 05:18 4,6 C 3,3 C 80 % 1025,0 hPa 0,0 l/m 0 min 0 min 0,0 UV-I 0 W/m 0,0 km/h (0 Bft)
17.04.2014 05:20 4,5 C 3,3 C 81 % 1025,0 hPa 0,0 l/m 0 min 0 min 0,0 UV-I 0 W/m 0,0 km/h (0 Bft)
17.04.2014 05:22 4,5 C 3,3 C 81 % 1025,0 hPa 0,0 l/m 0 min 0 min 0,0 UV-I 0 W/m 2,6 km/h (1 Bft)
17.04.2014 05:24 4,5 C 3,3 C 81 % 1025,0 hPa 0,0 l/m 0 min 0 min 0,0 UV-I 0 W/m 7,7 km/h (2 Bft)
17.04.2014 05:26 4,4 C 3,3 C 81 % 1025,0 hPa 0,0 l/m 0 min 0 min 0,0 UV-I 0 W/m 7,7 km/h (2 Bft)
17.04.2014 05:28 4,4 C 3,3 C 81 % 1024,9 hPa 0,0 l/m 0 min 0 min 0,0 UV-I 0 W/m 10,3 km/h (2 Bft)
17.04.2014 05:30 4,4 C 3,3 C 81 % 1024,9 hPa 0,0 l/m 0 min 0 min 0,0 UV-I 0 W/m 10,3 km/h (2 Bft)
17.04.2014 05:32 4,4 C 3,3 C 81 % 1024,8 hPa 0,0 l/m 0 min 0 min 0,0 UV-I 0 W/m 7,7 km/h (2 Bft)
17.04.2014 05:34 4,4 C 3,3 C 81 % 1024,8 hPa 0,0 l/m 0 min 0 min 0,0 UV-I 0 W/m 10,3 km/h (2 Bft)
17.04.2014 05:36 4,4 C 3,3 C 81 % 1024,8 hPa 0,0 l/m 0 min 0 min 0,0 UV-I 0 W/m 12,9 km/h (3 Bft)
17.04.2014 05:38 4,5 C 3,3 C 81 % 1024,8 hPa 0,0 l/m 0 min 0 min 0,0 UV-I 0 W/m 10,3 km/h (2 Bft)
17.04.2014 05:40 4,5 C 3,3 C 81 % 1024,8 hPa 0,0 l/m 0 min 0 min 0,0 UV-I 0 W/m 15,4 km/h (3 Bft)
17.04.2014 05:42 4,6 C 3,3 C 80 % 1024,8 hPa 0,0 l/m 0 min 0 min 0,0 UV-I 0 W/m 5,1 km/h (1 Bft)
17.04.2014 05:44 4,6 C 3,3 C 80 % 1024,8 hPa 0,0 l/m 0 min 0 min 0,0 UV-I 0 W/m 5,1 km/h (1 Bft)
17.04.2014 05:46 4,6 C 3,3 C 80 % 1024,9 hPa 0,0 l/m 0 min 0 min 0,0 UV-I 0 W/m 5,1 km/h (1 Bft)
17.04.2014 05:48 4,6 C 3,3 C 80 % 1024,9 hPa 0,0 l/m 0 min 0 min 0,0 UV-I 0 W/m 5,1 km/h (1 Bft)
17.04.2014 05:50 4,6 C 3,3 C 80 % 1024,9 hPa 0,0 l/m 0 min 0 min 0,0 UV-I 0 W/m 5,1 km/h (1 Bft)
17.04.2014 05:52 4,6 C 3,3 C 80 % 1024,9 hPa 0,0 l/m 0 min 0 min 0,0 UV-I 0 W/m 10,3 km/h (2 Bft)
17.04.2014 05:54 4,6 C 3,3 C 80 % 1024,9 hPa 0,0 l/m 0 min 0 min 0,0 UV-I 0 W/m 7,7 km/h (2 Bft)
17.04.2014 05:56 4,6 C 3,3 C 80 % 1024,9 hPa 0,0 l/m 0 min 0 min 0,0 UV-I 0 W/m 7,7 km/h (2 Bft)
17.04.2014 05:58 4,6 C 3,3 C 80 % 1024,9 hPa 0,0 l/m 0 min 0 min 0,0 UV-I 0 W/m 7,7 km/h (2 Bft)
17.04.2014 06:00 4,6 C 3,3 C 80 % 1024,9 hPa 0,0 l/m 0 min 0 min 0,0 UV-I 0 W/m 10,3 km/h (2 Bft)
17.04.2014 06:02 4,6 C 3,3 C 80 % 1024,8 hPa 0,0 l/m 0 min 0 min 0,0 UV-I 0 W/m 10,3 km/h (2 Bft)
17.04.2014 06:06 4,6 C 3,3 C 80 % 1024,7 hPa 0,0 l/m 0 min 0 min 0,0 UV-I 0 W/m 10,3 km/h (2 Bft)
17.04.2014 06:08 4,6 C 3,3 C 80 % 1024,7 hPa 0,0 l/m 0 min 0 min 0,0 UV-I 0 W/m 20,6 km/h (4 Bft)
17.04.2014 06:10 4,6 C 3,3 C 80 % 1024,7 hPa 0,0 l/m 0 min 0 min 0,0 UV-I 0 W/m 7,7 km/h (2 Bft)
17.04.2014 06:12 4,6 C 3,3 C 80 % 1024,7 hPa 0,0 l/m 0 min 0 min 0,0 UV-I 0 W/m 18,0 km/h (3 Bft)
17.04.2014 06:14 4,6 C 3,3 C 80 % 1024,7 hPa 0,0 l/m 0 min 0 min 0,0 UV-I 0 W/m 12,9 km/h (3 Bft)
17.04.2014 06:16 4,6 C 3,3 C 80 % 1024,7 hPa 0,0 l/m 0 min 0 min 0,0 UV-I 0 W/m 15,4 km/h (3 Bft)
17.04.2014 06:18 4,6 C 3,3 C 80 % 1024,6 hPa 0,0 l/m 0 min 0 min 0,0 UV-I 0 W/m 10,3 km/h (2 Bft)
17.04.2014 06:20 4,6 C 3,3 C 80 % 1024,7 hPa 0,0 l/m 0 min 0 min 0,0 UV-I 0 W/m 5,1 km/h (1 Bft)
17.04.2014 06:22 4,6 C 3,3 C 80 % 1024,6 hPa 0,0 l/m 0 min 0 min 0,0 UV-I 0 W/m 12,9 km/h (3 Bft)
17.04.2014 06:24 4,6 C 3,3 C 80 % 1024,6 hPa 0,0 l/m 0 min 0 min 0,0 UV-I 0 W/m 12,9 km/h (3 Bft)
17.04.2014 06:26 4,5 C 3,3 C 80 % 1024,6 hPa 0,0 l/m 0 min 0 min 0,0 UV-I 0 W/m 12,9 km/h (3 Bft)
17.04.2014 06:28 4,5 C 3,3 C 80 % 1024,5 hPa 0,0 l/m 0 min 0 min 0,0 UV-I 0 W/m 10,3 km/h (2 Bft)
17.04.2014 06:30 4,4 C 3,3 C 80 % 1024,5 hPa 0,0 l/m 0 min 0 min 0,0 UV-I 0 W/m 10,3 km/h (2 Bft)
17.04.2014 06:32 4,4 C 3,3 C 80 % 1024,5 hPa 0,0 l/m 0 min 0 min 0,0 UV-I 5 W/m 12,9 km/h (3 Bft)
17.04.2014 06:34 4,4 C 3,3 C 80 % 1024,4 hPa 0,0 l/m 0 min 0 min 0,0 UV-I 5 W/m 10,3 km/h (2 Bft)
17.04.2014 06:36 4,4 C 3,3 C 81 % 1024,4 hPa 0,0 l/m 0 min 0 min 0,0 UV-I 5 W/m 18,0 km/h (3 Bft)
17.04.2014 06:38 4,4 C 3,3 C 81 % 1024,3 hPa 0,0 l/m 0 min 0 min 0,0 UV-I 5 W/m 12,9 km/h (3 Bft)
17.04.2014 06:40 4,4 C 3,3 C 81 % 1024,3 hPa 0,0 l/m 0 min 0 min 0,0 UV-I 7 W/m 18,0 km/h (3 Bft)
17.04.2014 06:42 4,4 C 3,3 C 81 % 1024,3 hPa 0,0 l/m 0 min 0 min 0,0 UV-I 7 W/m 18,0 km/h (3 Bft)
17.04.2014 06:44 4,4 C 3,3 C 81 % 1024,3 hPa 0,0 l/m 0 min 0 min 0,0 UV-I 9 W/m 18,0 km/h (3 Bft)
17.04.2014 06:46 4,4 C 3,3 C 81 % 1024,4 hPa 0,0 l/m 0 min 0 min 0,0 UV-I 11 W/m 10,3 km/h (2 Bft)
17.04.2014 06:48 4,4 C 3,3 C 81 % 1024,4 hPa 0,0 l/m 0 min 0 min 0,0 UV-I 11 W/m 12,9 km/h (3 Bft)
17.04.2014 06:50 4,4 C 3,3 C 81 % 1024,3 hPa 0,0 l/m 0 min 0 min 0,0 UV-I 12 W/m 15,4 km/h (3 Bft)
17.04.2014 06:52 4,4 C 3,3 C 81 % 1024,4 hPa 0,0 l/m 0 min 0 min 0,0 UV-I 14 W/m 20,6 km/h (4 Bft)
17.04.2014 06:54 4,4 C 3,3 C 81 % 1024,3 hPa 0,0 l/m 0 min 0 min 0,0 UV-I 14 W/m 12,9 km/h (3 Bft)
17.04.2014 06:56 4,4 C 3,3 C 81 % 1024,3 hPa 0,0 l/m 0 min 0 min 0,0 UV-I 16 W/m 18,0 km/h (3 Bft)
17.04.2014 06:58 4,4 C 3,3 C 81 % 1024,2 hPa 0,0 l/m 0 min 0 min 0,0 UV-I 16 W/m 18,0 km/h (3 Bft)
17.04.2014 07:00 4,4 C 3,3 C 81 % 1024,2 hPa 0,0 l/m 0 min 0 min 0,0 UV-I 18 W/m 18,0 km/h (3 Bft)
17.04.2014 07:02 4,4 C 3,3 C 81 % 1024,2 hPa 0,0 l/m 0 min 0 min 0,0 UV-I 18 W/m 7,7 km/h (2 Bft)
17.04.2014 07:06 4,4 C 3,3 C 81 % 1024,2 hPa 0,0 l/m 0 min 0 min 0,0 UV-I 21 W/m 10,3 km/h (2 Bft)
17.04.2014 07:08 4,4 C 3,3 C 81 % 1024,2 hPa 0,0 l/m 0 min 0 min 0,0 UV-I 25 W/m 7,7 km/h (2 Bft)
17.04.2014 07:10 4,4 C 3,3 C 81 % 1024,2 hPa 0,0 l/m 0 min 0 min 0,0 UV-I 26 W/m 7,7 km/h (2 Bft)
17.04.2014 07:12 4,4 C 3,3 C 81 % 1024,2 hPa 0,0 l/m 0 min 0 min 0,0 UV-I 26 W/m 12,9 km/h (3 Bft)
17.04.2014 07:14 4,4 C 3,3 C 81 % 1024,2 hPa 0,0 l/m 0 min 0 min 0,0 UV-I 26 W/m 10,3 km/h (2 Bft)
17.04.2014 07:16 4,4 C 3,3 C 81 % 1024,2 hPa 0,0 l/m 0 min 0 min 0,0 UV-I 26 W/m 12,9 km/h (3 Bft)
17.04.2014 07:18 4,4 C 3,3 C 81 % 1024,1 hPa 0,0 l/m 0 min 0 min 0,0 UV-I 26 W/m 10,3 km/h (2 Bft)
17.04.2014 07:20 4,4 C 3,3 C 81 % 1024,0 hPa 0,0 l/m 0 min 0 min 0,0 UV-I 26 W/m 12,9 km/h (3 Bft)
17.04.2014 07:22 4,5 C 3,3 C 81 % 1024,1 hPa 0,0 l/m 0 min 0 min 0,0 UV-I 26 W/m 10,3 km/h (2 Bft)
17.04.2014 07:24 4,5 C 3,3 C 81 % 1024,1 hPa 0,0 l/m 0 min 0 min 0,0 UV-I 26 W/m 7,7 km/h (2 Bft)
17.04.2014 07:26 4,6 C 3,3 C 81 % 1024,0 hPa 0,0 l/m 0 min 0 min 0,0 UV-I 26 W/m 5,1 km/h (1 Bft)
17.04.2014 07:28 4,6 C 3,3 C 81 % 1024,1 hPa 0,0 l/m 0 min 0 min 0,0 UV-I 26 W/m 12,9 km/h (3 Bft)
17.04.2014 07:30 4,6 C 3,3 C 81 % 1024,1 hPa 0,0 l/m 0 min 0 min 0,0 UV-I 28 W/m 7,7 km/h (2 Bft)
17.04.2014 07:32 4,6 C 3,3 C 81 % 1024,2 hPa 0,0 l/m 0 min 0 min 0,0 UV-I 28 W/m 12,9 km/h (3 Bft)
17.04.2014 07:34 4,6 C 3,3 C 81 % 1024,2 hPa 0,0 l/m 0 min 0 min 0,0 UV-I 28 W/m 10,3 km/h (2 Bft)
17.04.2014 07:36 4,7 C 3,3 C 81 % 1024,2 hPa 0,0 l/m 0 min 0 min 0,0 UV-I 28 W/m 12,9 km/h (3 Bft)
17.04.2014 07:38 4,7 C 3,3 C 81 % 1024,3 hPa 0,0 l/m 0 min 0 min 0,0 UV-I 30 W/m 10,3 km/h (2 Bft)
17.04.2014 07:40 4,7 C 3,3 C 81 % 1024,3 hPa 0,0 l/m 0 min 0 min 0,0 UV-I 30 W/m 12,9 km/h (3 Bft)
17.04.2014 07:42 4,7 C 3,9 C 81 % 1024,4 hPa 0,0 l/m 0 min 0 min 0,0 UV-I 30 W/m 10,3 km/h (2 Bft)
17.04.2014 07:44 4,8 C 3,9 C 81 % 1024,3 hPa 0,0 l/m 0 min 0 min 0,0 UV-I 32 W/m 10,3 km/h (2 Bft)
17.04.2014 07:46 4,8 C 3,9 C 81 % 1024,3 hPa 0,0 l/m 0 min 0 min 0,0 UV-I 32 W/m 10,3 km/h (2 Bft)
17.04.2014 07:48 4,8 C 3,9 C 81 % 1024,2 hPa 0,0 l/m 0 min 0 min 0,0 UV-I 32 W/m 10,3 km/h (2 Bft)
17.04.2014 07:50 4,9 C 3,9 C 81 % 1024,2 hPa 0,0 l/m 0 min 0 min 0,0 UV-I 32 W/m 10,3 km/h (2 Bft)
17.04.2014 07:52 4,9 C 3,9 C 81 % 1024,2 hPa 0,0 l/m 0 min 0 min 0,0 UV-I 32 W/m 15,4 km/h (3 Bft)
17.04.2014 07:54 5,0 C 3,9 C 81 % 1024,2 hPa 0,0 l/m 0 min 0 min 0,0 UV-I 33 W/m 10,3 km/h (2 Bft)
17.04.2014 07:56 5,1 C 3,9 C 81 % 1024,2 hPa 0,0 l/m 0 min 0 min 0,0 UV-I 33 W/m 12,9 km/h (3 Bft)
17.04.2014 07:58 5,1 C 3,9 C 81 % 1024,1 hPa 0,0 l/m 0 min 0 min 0,0 UV-I 35 W/m 10,3 km/h (2 Bft)
17.04.2014 08:00 5,1 C 3,9 C 80 % 1024,1 hPa 0,0 l/m 0 min 0 min 0,0 UV-I 35 W/m 10,3 km/h (2 Bft)
17.04.2014 08:02 5,2 C 3,9 C 80 % 1024,0 hPa 0,0 l/m 0 min 0 min 0,0 UV-I 35 W/m 12,9 km/h (3 Bft)
17.04.2014 08:06 5,3 C 3,9 C 80 % 1024,0 hPa 0,0 l/m 0 min 0 min 0,0 UV-I 37 W/m 12,9 km/h (3 Bft)
17.04.2014 08:08 5,3 C 3,9 C 80 % 1024,0 hPa 0,0 l/m 0 min 0 min 0,0 UV-I 37 W/m 15,4 km/h (3 Bft)
17.04.2014 08:10 5,4 C 4,4 C 80 % 1024,1 hPa 0,0 l/m 0 min 0 min 0,0 UV-I 37 W/m 10,3 km/h (2 Bft)
17.04.2014 08:12 5,4 C 4,4 C 80 % 1024,1 hPa 0,0 l/m 0 min 0 min 0,0 UV-I 39 W/m 10,3 km/h (2 Bft)
17.04.2014 08:14 5,5 C 4,4 C 80 % 1024,2 hPa 0,0 l/m 0 min 0 min 0,0 UV-I 39 W/m 12,9 km/h (3 Bft)
17.04.2014 08:16 5,6 C 4,4 C 80 % 1024,2 hPa 0,0 l/m 0 min 0 min 0,0 UV-I 39 W/m 12,9 km/h (3 Bft)
17.04.2014 08:18 5,7 C 4,4 C 80 % 1024,2 hPa 0,0 l/m 0 min 0 min 0,0 UV-I 40 W/m 10,3 km/h (2 Bft)
17.04.2014 08:20 5,7 C 4,4 C 79 % 1024,2 hPa 0,0 l/m 0 min 0 min 0,0 UV-I 40 W/m 10,3 km/h (2 Bft)
17.04.2014 08:22 5,8 C 4,4 C 79 % 1024,2 hPa 0,0 l/m 0 min 0 min 0,0 UV-I 49 W/m 5,1 km/h (1 Bft)
17.04.2014 08:24 5,9 C 4,4 C 79 % 1024,1 hPa 0,0 l/m 2 min 0 min 0,0 UV-I 214 W/m 12,9 km/h (3 Bft)
17.04.2014 08:26 6,0 C 4,4 C 79 % 1024,1 hPa 0,0 l/m 2 min 0 min 0,0 UV-I 220 W/m 5,1 km/h (1 Bft)
17.04.2014 08:28 6,1 C 5,0 C 79 % 1024,1 hPa 0,0 l/m 2 min 0 min 0,0 UV-I 223 W/m 7,7 km/h (2 Bft)
17.04.2014 08:30 6,1 C 5,0 C 79 % 1024,1 hPa 0,0 l/m 2 min 0 min 0,0 UV-I 232 W/m 15,4 km/h (3 Bft)
17.04.2014 08:32 6,2 C 5,0 C 78 % 1024,1 hPa 0,0 l/m 2 min 0 min 0,0 UV-I 236 W/m 15,4 km/h (3 Bft)
17.04.2014 08:34 6,3 C 5,0 C 78 % 1024,1 hPa 0,0 l/m 2 min 0 min 0,0 UV-I 239 W/m 15,4 km/h (3 Bft)
17.04.2014 08:36 6,4 C 5,0 C 78 % 1024,1 hPa 0,0 l/m 2 min 0 min 0,0 UV-I 246 W/m 7,7 km/h (2 Bft)
17.04.2014 08:38 6,4 C 5,0 C 78 % 1024,2 hPa 0,0 l/m 2 min 0 min 0,0 UV-I 251 W/m 12,9 km/h (3 Bft)
17.04.2014 08:40 6,6 C 5,0 C 77 % 1024,1 hPa 0,0 l/m 2 min 0 min 0,0 UV-I 255 W/m 18,0 km/h (3 Bft)
17.04.2014 08:42 6,7 C 5,0 C 77 % 1024,0 hPa 0,0 l/m 2 min 0 min 0,0 UV-I 262 W/m 10,3 km/h (2 Bft)
17.04.2014 08:44 6,7 C 5,6 C 77 % 1024,0 hPa 0,0 l/m 2 min 0 min 0,0 UV-I 250 W/m 15,4 km/h (3 Bft)
17.04.2014 08:46 6,8 C 5,6 C 77 % 1024,0 hPa 0,0 l/m 2 min 0 min 0,0 UV-I 262 W/m 15,4 km/h (3 Bft)
17.04.2014 08:48 6,9 C 5,6 C 77 % 1024,0 hPa 0,0 l/m 2 min 0 min 0,0 UV-I 274 W/m 10,3 km/h (2 Bft)
17.04.2014 08:50 7,0 C 5,6 C 76 % 1024,0 hPa 0,0 l/m 2 min 0 min 0,0 UV-I 281 W/m 7,7 km/h (2 Bft)
17.04.2014 08:52 7,1 C 5,6 C 76 % 1024,0 hPa 0,0 l/m 2 min 0 min 0,0 UV-I 287 W/m 12,9 km/h (3 Bft)
17.04.2014 08:54 7,3 C 5,6 C 76 % 1023,9 hPa 0,0 l/m 2 min 0 min 0,0 UV-I 292 W/m 7,7 km/h (2 Bft)
17.04.2014 08:56 7,4 C 5,6 C 75 % 1023,9 hPa 0,0 l/m 2 min 0 min 0,0 UV-I 297 W/m 15,4 km/h (3 Bft)
17.04.2014 08:58 7,5 C 6,1 C 75 % 1023,9 hPa 0,0 l/m 2 min 0 min 0,0 UV-I 302 W/m 15,4 km/h (3 Bft)
17.04.2014 09:00 7,7 C 6,1 C 75 % 1023,9 hPa 0,0 l/m 2 min 0 min 0,0 UV-I 306 W/m 12,9 km/h (3 Bft)
17.04.2014 09:02 7,8 C 6,1 C 74 % 1023,8 hPa 0,0 l/m 2 min 0 min 0,0 UV-I 311 W/m 7,7 km/h (2 Bft)
17.04.2014 09:06 8,0 C 6,1 C 74 % 1023,8 hPa 0,0 l/m 2 min 0 min 0,0 UV-I 323 W/m 10,3 km/h (2 Bft)
17.04.2014 09:08 8,2 C 6,1 C 73 % 1023,8 hPa 0,0 l/m 2 min 0 min 0,0 UV-I 329 W/m 12,9 km/h (3 Bft)
17.04.2014 09:10 8,3 C 6,7 C 73 % 1023,8 hPa 0,0 l/m 2 min 0 min 0,0 UV-I 336 W/m 12,9 km/h (3 Bft)
17.04.2014 09:12 8,4 C 6,7 C 73 % 1023,8 hPa 0,0 l/m 2 min 0 min 0,0 UV-I 339 W/m 7,7 km/h (2 Bft)
17.04.2014 09:14 8,5 C 6,7 C 72 % 1023,8 hPa 0,0 l/m 2 min 0 min 0,0 UV-I 345 W/m 7,7 km/h (2 Bft)
17.04.2014 09:16 8,7 C 6,7 C 72 % 1023,8 hPa 0,0 l/m 2 min 0 min 0,0 UV-I 353 W/m 10,3 km/h (2 Bft)
17.04.2014 09:18 8,9 C 6,7 C 72 % 1023,8 hPa 0,0 l/m 2 min 0 min 0,0 UV-I 359 W/m 12,9 km/h (3 Bft)
17.04.2014 09:20 9,0 C 7,2 C 72 % 1023,8 hPa 0,0 l/m 2 min 0 min 0,0 UV-I 364 W/m 10,3 km/h (2 Bft)
17.04.2014 09:22 9,2 C 7,2 C 71 % 1023,8 hPa 0,0 l/m 2 min 0 min 0,0 UV-I 373 W/m 12,9 km/h (3 Bft)
17.04.2014 09:24 9,3 C 7,2 C 70 % 1023,8 hPa 0,0 l/m 2 min 0 min 0,0 UV-I 380 W/m 10,3 km/h (2 Bft)
17.04.2014 09:26 9,4 C 7,2 C 71 % 1023,7 hPa 0,0 l/m 2 min 0 min 0,0 UV-I 387 W/m 10,3 km/h (2 Bft)
17.04.2014 09:28 9,5 C 7,8 C 70 % 1023,7 hPa 0,0 l/m 2 min 0 min 0,0 UV-I 399 W/m 18,0 km/h (3 Bft)
17.04.2014 09:30 9,7 C 7,8 C 69 % 1023,6 hPa 0,0 l/m 2 min 0 min 0,0 UV-I 411 W/m 10,3 km/h (2 Bft)
17.04.2014 09:32 9,8 C 7,8 C 69 % 1023,6 hPa 0,0 l/m 2 min 0 min 0,0 UV-I 422 W/m 12,9 km/h (3 Bft)
17.04.2014 09:34 10,0 C 8,3 C 68 % 1023,6 hPa 0,0 l/m 2 min 0 min 0,0 UV-I 441 W/m 15,4 km/h (3 Bft)
17.04.2014 09:36 10,1 C 8,3 C 68 % 1023,5 hPa 0,0 l/m 2 min 0 min 0,0 UV-I 445 W/m 10,3 km/h (2 Bft)
17.04.2014 09:38 10,2 C 8,9 C 67 % 1023,6 hPa 0,0 l/m 2 min 0 min 0,0 UV-I 436 W/m 7,7 km/h (2 Bft)
17.04.2014 09:40 10,2 C 8,9 C 67 % 1023,5 hPa 0,0 l/m 2 min 0 min 0,0 UV-I 399 W/m 10,3 km/h (2 Bft)
17.04.2014 09:42 10,4 C 9,4 C 67 % 1023,5 hPa 0,0 l/m 2 min 0 min 0,5 UV-I 415 W/m 7,7 km/h (2 Bft)
17.04.2014 09:44 10,6 C 10,0 C 66 % 1023,6 hPa 0,0 l/m 2 min 0 min 0,5 UV-I 392 W/m 10,3 km/h (2 Bft)
17.04.2014 09:46 10,7 C 11,7 C 66 % 1023,6 hPa 0,0 l/m 2 min 0 min 0,5 UV-I 464 W/m 10,3 km/h (2 Bft)
17.04.2014 09:48 10,8 C 12,8 C 66 % 1023,5 hPa 0,0 l/m 2 min 0 min 0,5 UV-I 425 W/m 0,0 km/h (0 Bft)
17.04.2014 09:50 10,9 C 13,9 C 66 % 1023,6 hPa 0,0 l/m 2 min 0 min 0,5 UV-I 450 W/m 23,2 km/h (4 Bft)
17.04.2014 09:52 11,0 C 13,3 C 65 % 1023,6 hPa 0,0 l/m 2 min 0 min 0,5 UV-I 359 W/m 12,9 km/h (3 Bft)
17.04.2014 09:54 11,1 C 12,2 C 65 % 1023,5 hPa 0,0 l/m 2 min 0 min 0,5 UV-I 309 W/m 12,9 km/h (3 Bft)
17.04.2014 09:56 11,1 C 11,1 C 65 % 1023,5 hPa 0,0 l/m 2 min 0 min 0,5 UV-I 380 W/m 12,9 km/h (3 Bft)
17.04.2014 09:58 11,1 C 10,6 C 65 % 1023,5 hPa 0,0 l/m 2 min 0 min 0,7 UV-I 461 W/m 12,9 km/h (3 Bft)
17.04.2014 10:00 11,1 C 10,6 C 64 % 1023,5 hPa 0,0 l/m 2 min 0 min 0,7 UV-I 490 W/m 12,9 km/h (3 Bft)
17.04.2014 10:02 11,2 C 10,6 C 65 % 1023,5 hPa 0,0 l/m 2 min 0 min 0,7 UV-I 406 W/m 7,7 km/h (2 Bft)
17.04.2014 10:06 11,5 C 10,6 C 63 % 1023,5 hPa 0,0 l/m 2 min 0 min 0,8 UV-I 512 W/m 15,4 km/h (3 Bft)
17.04.2014 10:08 11,6 C 10,6 C 62 % 1023,5 hPa 0,0 l/m 2 min 0 min 0,9 UV-I 510 W/m 10,3 km/h (2 Bft)
17.04.2014 10:10 11,7 C 10,6 C 62 % 1023,4 hPa 0,0 l/m 2 min 0 min 0,8 UV-I 478 W/m 10,3 km/h (2 Bft)
17.04.2014 10:12 11,9 C 11,1 C 63 % 1023,4 hPa 0,0 l/m 2 min 0 min 0,9 UV-I 512 W/m 15,4 km/h (3 Bft)
17.04.2014 10:14 12,3 C 11,1 C 63 % 1023,4 hPa 0,0 l/m 2 min 0 min 0,9 UV-I 503 W/m 12,9 km/h (3 Bft)
17.04.2014 10:16 12,4 C 11,1 C 60 % 1023,5 hPa 0,0 l/m 2 min 0 min 0,8 UV-I 403 W/m 12,9 km/h (3 Bft)
17.04.2014 10:18 12,3 C 11,1 C 57 % 1023,4 hPa 0,0 l/m 2 min 0 min 0,9 UV-I 468 W/m 10,3 km/h (2 Bft)
17.04.2014 10:20 12,3 C 11,1 C 59 % 1023,4 hPa 0,0 l/m 2 min 0 min 0,9 UV-I 455 W/m 15,4 km/h (3 Bft)
17.04.2014 10:22 12,3 C 11,1 C 59 % 1023,4 hPa 0,0 l/m 2 min 0 min 0,9 UV-I 508 W/m 15,4 km/h (3 Bft)
17.04.2014 10:24 12,4 C 11,7 C 58 % 1023,4 hPa 0,0 l/m 2 min 0 min 1,1 UV-I 534 W/m 0,0 km/h (0 Bft)
17.04.2014 10:26 12,5 C 11,7 C 59 % 1023,4 hPa 0,0 l/m 2 min 0 min 0,9 UV-I 431 W/m 5,1 km/h (1 Bft)
17.04.2014 10:28 12,7 C 11,7 C 58 % 1023,3 hPa 0,0 l/m 2 min 0 min 1,0 UV-I 487 W/m 15,4 km/h (3 Bft)
17.04.2014 10:30 12,9 C 11,7 C 58 % 1023,3 hPa 0,0 l/m 2 min 0 min 1,2 UV-I 554 W/m 15,4 km/h (3 Bft)
17.04.2014 10:32 12,9 C 11,7 C 57 % 1023,3 hPa 0,0 l/m 2 min 0 min 1,2 UV-I 559 W/m 7,7 km/h (2 Bft)
17.04.2014 10:34 13,0 C 11,7 C 56 % 1023,2 hPa 0,0 l/m 2 min 0 min 1,3 UV-I 559 W/m 15,4 km/h (3 Bft)
17.04.2014 10:36 13,1 C 12,2 C 56 % 1023,2 hPa 0,0 l/m 2 min 0 min 1,3 UV-I 570 W/m 12,9 km/h (3 Bft)
17.04.2014 10:38 13,2 C 12,2 C 56 % 1023,2 hPa 0,0 l/m 2 min 0 min 1,3 UV-I 577 W/m 12,9 km/h (3 Bft)
17.04.2014 10:40 13,2 C 12,2 C 55 % 1023,1 hPa 0,0 l/m 2 min 0 min 1,4 UV-I 571 W/m 7,7 km/h (2 Bft)
17.04.2014 10:42 13,2 C 12,2 C 56 % 1023,1 hPa 0,0 l/m 2 min 0 min 1,4 UV-I 585 W/m 15,4 km/h (3 Bft)
17.04.2014 10:44 13,3 C 12,2 C 55 % 1023,0 hPa 0,0 l/m 2 min 0 min 1,4 UV-I 592 W/m 15,4 km/h (3 Bft)
17.04.2014 10:46 13,5 C 12,2 C 56 % 1023,1 hPa 0,0 l/m 2 min 0 min 1,4 UV-I 566 W/m 10,3 km/h (2 Bft)
17.04.2014 10:48 13,6 C 12,2 C 55 % 1023,0 hPa 0,0 l/m 2 min 0 min 1,4 UV-I 559 W/m 7,7 km/h (2 Bft)
17.04.2014 10:50 13,6 C 12,8 C 55 % 1022,9 hPa 0,0 l/m 2 min 0 min 1,4 UV-I 555 W/m 12,9 km/h (3 Bft)
17.04.2014 10:52 13,6 C 12,8 C 54 % 1022,9 hPa 0,0 l/m 2 min 0 min 1,5 UV-I 605 W/m 10,3 km/h (2 Bft)
17.04.2014 10:54 13,7 C 12,8 C 53 % 1023,0 hPa 0,0 l/m 2 min 0 min 1,5 UV-I 578 W/m 2,6 km/h (1 Bft)
17.04.2014 10:56 13,9 C 12,8 C 53 % 1023,0 hPa 0,0 l/m 2 min 0 min 1,6 UV-I 561 W/m 2,6 km/h (1 Bft)
17.04.2014 10:58 13,9 C 12,8 C 52 % 1023,0 hPa 0,0 l/m 2 min 0 min 1,6 UV-I 587 W/m 12,9 km/h (3 Bft)
17.04.2014 11:00 14,2 C 12,8 C 53 % 1022,9 hPa 0,0 l/m 2 min 0 min 1,6 UV-I 587 W/m 15,4 km/h (3 Bft)
17.04.2014 11:02 14,2 C 13,3 C 52 % 1022,9 hPa 0,0 l/m 2 min 0 min 1,7 UV-I 592 W/m 12,9 km/h (3 Bft)
17.04.2014 11:06 14,1 C 13,3 C 53 % 1022,7 hPa 0,0 l/m 2 min 0 min 1,7 UV-I 563 W/m 10,3 km/h (2 Bft)
17.04.2014 11:08 14,2 C 13,3 C 51 % 1022,7 hPa 0,0 l/m 2 min 0 min 1,6 UV-I 613 W/m 15,4 km/h (3 Bft)
17.04.2014 11:10 14,2 C 13,3 C 53 % 1022,7 hPa 0,0 l/m 2 min 0 min 1,6 UV-I 552 W/m 7,7 km/h (2 Bft)
17.04.2014 11:12 14,2 C 13,3 C 52 % 1022,7 hPa 0,0 l/m 2 min 0 min 1,7 UV-I 570 W/m 12,9 km/h (3 Bft)
17.04.2014 11:14 14,2 C 13,9 C 53 % 1022,6 hPa 0,0 l/m 2 min 0 min 1,8 UV-I 598 W/m 18,0 km/h (3 Bft)
17.04.2014 11:16 14,3 C 13,9 C 53 % 1022,7 hPa 0,0 l/m 2 min 0 min 1,8 UV-I 610 W/m 7,7 km/h (2 Bft)
17.04.2014 11:18 14,5 C 13,9 C 52 % 1022,5 hPa 0,0 l/m 2 min 0 min 1,8 UV-I 577 W/m 12,9 km/h (3 Bft)
17.04.2014 11:20 14,6 C 14,4 C 51 % 1022,5 hPa 0,0 l/m 2 min 0 min 1,6 UV-I 527 W/m 12,9 km/h (3 Bft)
17.04.2014 11:22 14,4 C 13,9 C 51 % 1022,6 hPa 0,0 l/m 2 min 0 min 1,7 UV-I 555 W/m 10,3 km/h (2 Bft)
17.04.2014 11:24 14,4 C 14,4 C 50 % 1022,5 hPa 0,0 l/m 2 min 0 min 1,8 UV-I 571 W/m 12,9 km/h (3 Bft)
17.04.2014 11:26 14,3 C 13,9 C 50 % 1022,5 hPa 0,0 l/m 2 min 0 min 1,6 UV-I 492 W/m 12,9 km/h (3 Bft)
17.04.2014 11:28 14,5 C 14,4 C 54 % 1022,4 hPa 0,0 l/m 2 min 0 min 1,8 UV-I 547 W/m 15,4 km/h (3 Bft)
17.04.2014 11:30 14,6 C 14,4 C 52 % 1022,4 hPa 0,0 l/m 2 min 0 min 1,7 UV-I 512 W/m 7,7 km/h (2 Bft)
17.04.2014 11:32 14,6 C 14,4 C 51 % 1022,4 hPa 0,0 l/m 2 min 0 min 1,6 UV-I 494 W/m 12,9 km/h (3 Bft)
17.04.2014 11:34 14,5 C 14,4 C 50 % 1022,3 hPa 0,0 l/m 2 min 0 min 1,6 UV-I 512 W/m 10,3 km/h (2 Bft)
17.04.2014 11:36 14,5 C 14,4 C 50 % 1022,2 hPa 0,0 l/m 2 min 0 min 1,5 UV-I 404 W/m 10,3 km/h (2 Bft)
17.04.2014 11:38 14,5 C 13,9 C 53 % 1022,2 hPa 0,0 l/m 2 min 0 min 1,5 UV-I 450 W/m 15,4 km/h (3 Bft)
17.04.2014 11:40 14,5 C 13,9 C 50 % 1022,1 hPa 0,0 l/m 2 min 0 min 1,4 UV-I 427 W/m 15,4 km/h (3 Bft)
17.04.2014 11:42 14,3 C 13,9 C 50 % 1022,1 hPa 0,0 l/m 2 min 0 min 1,7 UV-I 526 W/m 10,3 km/h (2 Bft)
17.04.2014 11:44 14,3 C 13,9 C 49 % 1022,1 hPa 0,0 l/m 2 min 0 min 1,6 UV-I 450 W/m 5,1 km/h (1 Bft)
17.04.2014 11:46 14,2 C 13,9 C 51 % 1021,9 hPa 0,0 l/m 2 min 0 min 1,7 UV-I 504 W/m 0,0 km/h (0 Bft)
17.04.2014 11:48 14,5 C 14,4 C 53 % 1021,9 hPa 0,0 l/m 2 min 0 min 1,6 UV-I 536 W/m 0,0 km/h (0 Bft)
17.04.2014 11:50 14,7 C 14,4 C 50 % 1021,9 hPa 0,0 l/m 2 min 0 min 2,0 UV-I 557 W/m 2,6 km/h (1 Bft)
17.04.2014 11:52 14,9 C 14,4 C 52 % 1021,9 hPa 0,0 l/m 2 min 0 min 1,8 UV-I 626 W/m 15,4 km/h (3 Bft)
17.04.2014 11:54 15,1 C 14,4 C 50 % 1021,8 hPa 0,0 l/m 2 min 0 min 2,0 UV-I 584 W/m 7,7 km/h (2 Bft)
17.04.2014 11:56 14,9 C 14,4 C 49 % 1021,8 hPa 0,0 l/m 2 min 0 min 2,0 UV-I 573 W/m 0,0 km/h (0 Bft)
17.04.2014 11:58 15,0 C 15,0 C 50 % 1021,8 hPa 0,0 l/m 2 min 0 min 2,1 UV-I 568 W/m 10,3 km/h (2 Bft)
17.04.2014 12:00 15,1 C 15,0 C 49 % 1021,8 hPa 0,0 l/m 2 min 0 min 2,2 UV-I 684 W/m 10,3 km/h (2 Bft)
17.04.2014 12:02 15,4 C 15,6 C 50 % 1021,7 hPa 0,0 l/m 2 min 0 min 2,5 UV-I 745 W/m 7,7 km/h (2 Bft)
17.04.2014 12:06 15,7 C 16,1 C 51 % 1021,5 hPa 0,0 l/m 2 min 0 min 2,3 UV-I 629 W/m 12,9 km/h (3 Bft)
17.04.2014 12:08 15,5 C 16,1 C 48 % 1021,4 hPa 0,0 l/m 2 min 0 min 2,1 UV-I 619 W/m 7,7 km/h (2 Bft)
17.04.2014 12:10 15,4 C 16,1 C 50 % 1021,5 hPa 0,0 l/m 2 min 0 min 2,0 UV-I 610 W/m 7,7 km/h (2 Bft)
17.04.2014 12:12 15,6 C 16,1 C 51 % 1021,6 hPa 0,0 l/m 2 min 0 min 1,8 UV-I 503 W/m 10,3 km/h (2 Bft)
17.04.2014 12:14 15,5 C 15,6 C 48 % 1021,6 hPa 0,0 l/m 2 min 0 min 1,8 UV-I 503 W/m 12,9 km/h (3 Bft)
17.04.2014 12:16 15,2 C 15,6 C 48 % 1021,5 hPa 0,0 l/m 2 min 0 min 1,6 UV-I 468 W/m 7,7 km/h (2 Bft)
17.04.2014 12:18 14,9 C 15,6 C 47 % 1021,4 hPa 0,0 l/m 2 min 0 min 1,7 UV-I 482 W/m 10,3 km/h (2 Bft)
17.04.2014 12:20 14,9 C 15,6 C 48 % 1021,3 hPa 0,0 l/m 2 min 0 min 1,7 UV-I 489 W/m 7,7 km/h (2 Bft)
17.04.2014 12:22 15,1 C 15,6 C 51 % 1021,3 hPa 0,0 l/m 2 min 0 min 1,8 UV-I 513 W/m 12,9 km/h (3 Bft)
17.04.2014 12:24 15,4 C 15,6 C 50 % 1021,3 hPa 0,0 l/m 2 min 0 min 1,7 UV-I 469 W/m 18,0 km/h (3 Bft)
17.04.2014 12:26 15,4 C 16,1 C 49 % 1021,3 hPa 0,0 l/m 2 min 0 min 1,6 UV-I 462 W/m 12,9 km/h (3 Bft)
17.04.2014 12:28 15,3 C 15,6 C 47 % 1021,2 hPa 0,0 l/m 2 min 0 min 1,7 UV-I 483 W/m 18,0 km/h (3 Bft)
17.04.2014 12:30 15,3 C 15,6 C 47 % 1021,1 hPa 0,0 l/m 2 min 0 min 1,5 UV-I 443 W/m 20,6 km/h (4 Bft)
17.04.2014 12:32 15,2 C 15,6 C 47 % 1021,2 hPa 0,0 l/m 2 min 0 min 1,4 UV-I 403 W/m 15,4 km/h (3 Bft)
17.04.2014 12:34 15,2 C 15,6 C 50 % 1021,1 hPa 0,0 l/m 0 min 0 min 1,3 UV-I 345 W/m 10,3 km/h (2 Bft)
17.04.2014 12:36 15,2 C 15,6 C 48 % 1021,1 hPa 0,0 l/m 0 min 0 min 1,4 UV-I 371 W/m 12,9 km/h (3 Bft)
17.04.2014 12:38 15,1 C 15,0 C 48 % 1021,0 hPa 0,0 l/m 0 min 0 min 1,4 UV-I 380 W/m 7,7 km/h (2 Bft)
17.04.2014 12:40 15,0 C 15,0 C 48 % 1021,0 hPa 0,0 l/m 0 min 0 min 1,5 UV-I 381 W/m 12,9 km/h (3 Bft)
17.04.2014 12:42 15,1 C 15,6 C 50 % 1021,0 hPa 0,0 l/m 2 min 0 min 1,6 UV-I 431 W/m 7,7 km/h (2 Bft)
17.04.2014 12:44 15,4 C 15,6 C 52 % 1020,9 hPa 0,0 l/m 2 min 0 min 1,8 UV-I 464 W/m 5,1 km/h (1 Bft)
17.04.2014 12:46 15,6 C 15,6 C 49 % 1020,9 hPa 0,0 l/m 2 min 0 min 2,1 UV-I 610 W/m 12,9 km/h (3 Bft)
17.04.2014 12:48 15,6 C 15,6 C 46 % 1020,8 hPa 0,0 l/m 2 min 0 min 1,7 UV-I 487 W/m 12,9 km/h (3 Bft)
17.04.2014 12:50 15,6 C 15,6 C 47 % 1020,8 hPa 0,0 l/m 2 min 0 min 1,8 UV-I 547 W/m 18,0 km/h (3 Bft)
17.04.2014 12:52 15,7 C 16,1 C 48 % 1020,8 hPa 0,0 l/m 2 min 0 min 1,7 UV-I 585 W/m 2,6 km/h (1 Bft)
17.04.2014 12:54 15,8 C 16,1 C 47 % 1020,8 hPa 0,0 l/m 2 min 0 min 1,6 UV-I 520 W/m 12,9 km/h (3 Bft)
17.04.2014 12:56 15,9 C 16,1 C 45 % 1020,8 hPa 0,0 l/m 2 min 0 min 1,5 UV-I 538 W/m 2,6 km/h (1 Bft)
17.04.2014 12:58 15,9 C 16,1 C 47 % 1020,7 hPa 0,0 l/m 0 min 0 min 1,4 UV-I 364 W/m 2,6 km/h (1 Bft)
17.04.2014 13:00 15,8 C 15,6 C 45 % 1020,7 hPa 0,0 l/m 0 min 0 min 1,3 UV-I 359 W/m 0,0 km/h (0 Bft)
17.04.2014 13:02 15,7 C 15,6 C 45 % 1020,7 hPa 0,0 l/m 0 min 0 min 1,3 UV-I 373 W/m 10,3 km/h (2 Bft)
17.04.2014 13:06 15,8 C 15,6 C 48 % 1020,7 hPa 0,0 l/m 2 min 0 min 1,4 UV-I 568 W/m 10,3 km/h (2 Bft)
17.04.2014 13:08 15,8 C 15,6 C 48 % 1020,7 hPa 0,0 l/m 2 min 0 min 1,4 UV-I 738 W/m 7,7 km/h (2 Bft)
17.04.2014 13:10 16,0 C 16,1 C 47 % 1020,5 hPa 0,0 l/m 2 min 0 min 1,4 UV-I 803 W/m 5,1 km/h (1 Bft)
17.04.2014 13:12 16,3 C 16,1 C 48 % 1020,4 hPa 0,0 l/m 2 min 0 min 1,4 UV-I 809 W/m 0,0 km/h (0 Bft)
17.04.2014 13:14 16,7 C 16,1 C 45 % 1020,4 hPa 0,0 l/m 2 min 0 min 1,4 UV-I 823 W/m 10,3 km/h (2 Bft)
17.04.2014 13:16 16,6 C 16,1 C 43 % 1020,4 hPa 0,0 l/m 2 min 0 min 1,4 UV-I 809 W/m 7,7 km/h (2 Bft)
17.04.2014 13:18 16,6 C 16,1 C 43 % 1020,5 hPa 0,0 l/m 2 min 0 min 1,5 UV-I 812 W/m 5,1 km/h (1 Bft)
17.04.2014 13:20 16,8 C 16,7 C 47 % 1020,4 hPa 0,0 l/m 2 min 0 min 1,5 UV-I 805 W/m 7,7 km/h (2 Bft)
17.04.2014 13:22 16,9 C 16,7 C 44 % 1020,4 hPa 0,0 l/m 2 min 0 min 1,5 UV-I 633 W/m 10,3 km/h (2 Bft)
17.04.2014 13:24 16,8 C 16,7 C 46 % 1020,3 hPa 0,0 l/m 2 min 0 min 1,5 UV-I 679 W/m 23,2 km/h (4 Bft)
17.04.2014 13:26 16,6 C 16,1 C 43 % 1020,3 hPa 0,0 l/m 2 min 0 min 1,5 UV-I 670 W/m 5,1 km/h (1 Bft)
17.04.2014 13:28 16,7 C 16,7 C 43 % 1020,4 hPa 0,0 l/m 2 min 0 min 1,5 UV-I 796 W/m 15,4 km/h (3 Bft)
17.04.2014 13:30 16,7 C 16,7 C 44 % 1020,2 hPa 0,0 l/m 2 min 0 min 1,5 UV-I 752 W/m 18,0 km/h (3 Bft)
17.04.2014 13:32 16,8 C 16,7 C 44 % 1020,0 hPa 0,0 l/m 2 min 0 min 1,5 UV-I 738 W/m 10,3 km/h (2 Bft)
17.04.2014 13:34 16,9 C 16,7 C 44 % 1020,0 hPa 0,0 l/m 2 min 0 min 1,5 UV-I 809 W/m 18,0 km/h (3 Bft)
17.04.2014 13:36 17,0 C 17,2 C 44 % 1019,9 hPa 0,0 l/m 2 min 0 min 1,7 UV-I 816 W/m 18,0 km/h (3 Bft)
17.04.2014 13:38 16,8 C 16,7 C 44 % 1020,0 hPa 0,0 l/m 2 min 0 min 1,7 UV-I 784 W/m 12,9 km/h (3 Bft)
17.04.2014 13:40 16,6 C 16,7 C 43 % 1019,9 hPa 0,0 l/m 2 min 0 min 1,9 UV-I 694 W/m 12,9 km/h (3 Bft)
17.04.2014 13:42 16,5 C 16,1 C 43 % 1019,9 hPa 0,0 l/m 2 min 0 min 2,4 UV-I 677 W/m 12,9 km/h (3 Bft)
17.04.2014 13:44 16,6 C 16,7 C 45 % 1019,9 hPa 0,0 l/m 2 min 0 min 2,6 UV-I 798 W/m 15,4 km/h (3 Bft)
17.04.2014 13:46 16,7 C 16,7 C 47 % 1019,9 hPa 0,0 l/m 2 min 0 min 3,0 UV-I 780 W/m 20,6 km/h (4 Bft)
17.04.2014 13:48 16,9 C 16,7 C 45 % 1019,8 hPa 0,0 l/m 2 min 0 min 3,1 UV-I 791 W/m 10,3 km/h (2 Bft)
17.04.2014 13:50 17,2 C 16,7 C 45 % 1019,7 hPa 0,0 l/m 2 min 0 min 3,0 UV-I 733 W/m 12,9 km/h (3 Bft)
17.04.2014 13:52 17,2 C 16,7 C 45 % 1019,7 hPa 0,0 l/m 2 min 0 min 3,3 UV-I 824 W/m 7,7 km/h (2 Bft)
17.04.2014 13:54 17,3 C 16,7 C 45 % 1019,7 hPa 0,0 l/m 2 min 0 min 2,4 UV-I 656 W/m 7,7 km/h (2 Bft)
17.04.2014 13:56 17,2 C 16,7 C 43 % 1019,7 hPa 0,0 l/m 2 min 0 min 2,6 UV-I 656 W/m 18,0 km/h (3 Bft)
17.04.2014 13:58 17,0 C 16,7 C 45 % 1019,6 hPa 0,0 l/m 2 min 0 min 2,6 UV-I 656 W/m 12,9 km/h (3 Bft)
17.04.2014 14:00 16,8 C 16,1 C 45 % 1019,5 hPa 0,0 l/m 2 min 0 min 1,7 UV-I 464 W/m 7,7 km/h (2 Bft)
17.04.2014 14:02 16,8 C 16,1 C 45 % 1019,5 hPa 0,0 l/m 0 min 0 min 2,3 UV-I 388 W/m 15,4 km/h (3 Bft)
17.04.2014 14:06 16,6 C 16,1 C 47 % 1019,3 hPa 0,0 l/m 0 min 0 min 2,7 UV-I 401 W/m 18,0 km/h (3 Bft)
17.04.2014 14:08 16,8 C 16,1 C 45 % 1019,3 hPa 0,0 l/m 2 min 0 min 3,1 UV-I 793 W/m 15,4 km/h (3 Bft)
17.04.2014 14:10 16,9 C 16,1 C 45 % 1019,2 hPa 0,0 l/m 2 min 0 min 3,1 UV-I 775 W/m 2,6 km/h (1 Bft)
17.04.2014 14:12 16,8 C 16,1 C 44 % 1019,2 hPa 0,0 l/m 2 min 0 min 3,1 UV-I 765 W/m 7,7 km/h (2 Bft)
17.04.2014 14:14 17,0 C 16,7 C 45 % 1019,2 hPa 0,0 l/m 2 min 0 min 3,1 UV-I 758 W/m 10,3 km/h (2 Bft)
17.04.2014 14:16 17,4 C 16,7 C 44 % 1019,2 hPa 0,0 l/m 2 min 0 min 3,1 UV-I 752 W/m 12,9 km/h (3 Bft)
17.04.2014 14:18 17,3 C 16,7 C 42 % 1019,1 hPa 0,0 l/m 2 min 0 min 3,1 UV-I 752 W/m 18,0 km/h (3 Bft)
17.04.2014 14:20 17,5 C 16,7 C 44 % 1019,0 hPa 0,0 l/m 2 min 0 min 3,1 UV-I 745 W/m 18,0 km/h (3 Bft)
17.04.2014 14:22 17,9 C 16,7 C 45 % 1018,9 hPa 0,0 l/m 2 min 0 min 3,1 UV-I 742 W/m 20,6 km/h (4 Bft)
17.04.2014 14:24 18,0 C 16,7 C 45 % 1018,9 hPa 0,0 l/m 2 min 0 min 3,0 UV-I 740 W/m 2,6 km/h (1 Bft)
17.04.2014 14:26 18,1 C 17,2 C 42 % 1018,9 hPa 0,0 l/m 2 min 0 min 3,1 UV-I 735 W/m 10,3 km/h (2 Bft)
17.04.2014 14:28 17,8 C 16,7 C 42 % 1018,8 hPa 0,0 l/m 2 min 0 min 3,0 UV-I 735 W/m 10,3 km/h (2 Bft)
17.04.2014 14:30 18,0 C 16,7 C 46 % 1018,9 hPa 0,0 l/m 2 min 0 min 3,0 UV-I 733 W/m 7,7 km/h (2 Bft)
17.04.2014 14:32 18,1 C 17,2 C 42 % 1018,9 hPa 0,0 l/m 2 min 0 min 3,0 UV-I 728 W/m 10,3 km/h (2 Bft)
17.04.2014 14:34 18,2 C 17,2 C 43 % 1018,8 hPa 0,0 l/m 2 min 0 min 3,0 UV-I 726 W/m 10,3 km/h (2 Bft)
17.04.2014 14:36 18,2 C 17,2 C 41 % 1018,7 hPa 0,0 l/m 2 min 0 min 3,0 UV-I 724 W/m 25,7 km/h (4 Bft)
17.04.2014 14:38 18,2 C 17,2 C 42 % 1018,7 hPa 0,0 l/m 2 min 0 min 3,0 UV-I 717 W/m 28,3 km/h (4 Bft)
17.04.2014 14:40 18,0 C 17,2 C 41 % 1018,7 hPa 0,0 l/m 2 min 0 min 2,9 UV-I 721 W/m 15,4 km/h (3 Bft)
17.04.2014 14:42 18,1 C 17,2 C 43 % 1018,6 hPa 0,0 l/m 2 min 0 min 2,9 UV-I 715 W/m 2,6 km/h (1 Bft)
17.04.2014 14:44 18,1 C 17,2 C 42 % 1018,6 hPa 0,0 l/m 2 min 0 min 2,9 UV-I 719 W/m 12,9 km/h (3 Bft)
17.04.2014 14:46 18,1 C 17,2 C 43 % 1018,4 hPa 0,0 l/m 2 min 0 min 2,9 UV-I 719 W/m 7,7 km/h (2 Bft)
17.04.2014 14:48 18,1 C 17,2 C 42 % 1018,4 hPa 0,0 l/m 2 min 0 min 2,9 UV-I 715 W/m 12,9 km/h (3 Bft)
17.04.2014 14:50 18,2 C 17,8 C 43 % 1018,4 hPa 0,0 l/m 2 min 0 min 2,9 UV-I 714 W/m 7,7 km/h (2 Bft)
17.04.2014 14:52 18,3 C 17,8 C 44 % 1018,3 hPa 0,0 l/m 2 min 0 min 2,8 UV-I 714 W/m 10,3 km/h (2 Bft)
17.04.2014 14:54 18,6 C 17,8 C 43 % 1018,2 hPa 0,0 l/m 2 min 0 min 2,8 UV-I 714 W/m 7,7 km/h (2 Bft)
17.04.2014 14:56 18,7 C 17,8 C 41 % 1018,2 hPa 0,0 l/m 2 min 0 min 2,8 UV-I 710 W/m 12,9 km/h (3 Bft)
17.04.2014 14:58 18,3 C 17,8 C 39 % 1018,2 hPa 0,0 l/m 2 min 0 min 2,8 UV-I 708 W/m 15,4 km/h (3 Bft)
17.04.2014 15:00 18,4 C 17,8 C 42 % 1018,0 hPa 0,0 l/m 2 min 0 min 2,7 UV-I 707 W/m 12,9 km/h (3 Bft)
17.04.2014 15:02 18,3 C 17,8 C 42 % 1017,9 hPa 0,0 l/m 2 min 0 min 2,7 UV-I 703 W/m 7,7 km/h (2 Bft)
17.04.2014 15:06 18,3 C 17,8 C 43 % 1017,7 hPa 0,0 l/m 2 min 0 min 2,7 UV-I 700 W/m 10,3 km/h (2 Bft)
17.04.2014 15:08 18,6 C 17,8 C 42 % 1017,6 hPa 0,0 l/m 2 min 0 min 2,6 UV-I 696 W/m 12,9 km/h (3 Bft)
17.04.2014 15:10 18,8 C 17,8 C 41 % 1017,5 hPa 0,0 l/m 2 min 0 min 2,6 UV-I 694 W/m 20,6 km/h (4 Bft)
17.04.2014 15:12 18,9 C 17,8 C 41 % 1017,6 hPa 0,0 l/m 2 min 0 min 2,6 UV-I 693 W/m 18,0 km/h (3 Bft)
17.04.2014 15:14 18,7 C 17,8 C 40 % 1017,5 hPa 0,0 l/m 2 min 0 min 2,6 UV-I 687 W/m 18,0 km/h (3 Bft)
17.04.2014 15:16 18,8 C 17,8 C 40 % 1017,4 hPa 0,0 l/m 2 min 0 min 2,5 UV-I 684 W/m 20,6 km/h (4 Bft)
17.04.2014 15:18 18,6 C 17,8 C 41 % 1017,4 hPa 0,0 l/m 2 min 0 min 2,5 UV-I 680 W/m 15,4 km/h (3 Bft)
17.04.2014 15:20 18,6 C 17,8 C 41 % 1017,4 hPa 0,0 l/m 2 min 0 min 2,5 UV-I 682 W/m 7,7 km/h (2 Bft)
17.04.2014 15:22 18,6 C 17,8 C 39 % 1017,4 hPa 0,0 l/m 2 min 0 min 2,5 UV-I 680 W/m 2,6 km/h (1 Bft)
17.04.2014 15:24 18,6 C 17,8 C 42 % 1017,3 hPa 0,0 l/m 2 min 0 min 2,5 UV-I 679 W/m 12,9 km/h (3 Bft)
17.04.2014 15:26 18,6 C 17,8 C 38 % 1017,3 hPa 0,0 l/m 2 min 0 min 2,4 UV-I 671 W/m 15,4 km/h (3 Bft)
17.04.2014 15:28 18,7 C 17,8 C 39 % 1017,4 hPa 0,0 l/m 2 min 0 min 2,4 UV-I 673 W/m 18,0 km/h (3 Bft)
17.04.2014 15:30 18,7 C 17,8 C 40 % 1017,4 hPa 0,0 l/m 2 min 0 min 2,4 UV-I 671 W/m 18,0 km/h (3 Bft)
17.04.2014 15:32 18,5 C 17,8 C 38 % 1017,5 hPa 0,0 l/m 2 min 0 min 2,3 UV-I 663 W/m 23,2 km/h (4 Bft)
17.04.2014 15:34 18,4 C 17,8 C 38 % 1017,4 hPa 0,0 l/m 2 min 0 min 2,3 UV-I 663 W/m 12,9 km/h (3 Bft)
17.04.2014 15:36 18,3 C 17,8 C 38 % 1017,4 hPa 0,0 l/m 2 min 0 min 2,3 UV-I 661 W/m 12,9 km/h (3 Bft)
17.04.2014 15:38 18,4 C 17,8 C 40 % 1017,3 hPa 0,0 l/m 2 min 0 min 2,2 UV-I 656 W/m 2,6 km/h (1 Bft)
17.04.2014 15:40 18,6 C 17,8 C 38 % 1017,4 hPa 0,0 l/m 2 min 0 min 2,2 UV-I 650 W/m 28,3 km/h (4 Bft)
17.04.2014 15:42 18,5 C 17,8 C 37 % 1017,2 hPa 0,0 l/m 2 min 0 min 2,2 UV-I 647 W/m 15,4 km/h (3 Bft)
17.04.2014 15:44 18,6 C 17,8 C 40 % 1017,1 hPa 0,0 l/m 2 min 0 min 2,2 UV-I 645 W/m 12,9 km/h (3 Bft)
17.04.2014 15:46 18,9 C 17,8 C 40 % 1017,1 hPa 0,0 l/m 2 min 0 min 2,2 UV-I 647 W/m 10,3 km/h (2 Bft)
17.04.2014 15:48 19,0 C 17,8 C 38 % 1017,0 hPa 0,0 l/m 2 min 0 min 2,2 UV-I 645 W/m 12,9 km/h (3 Bft)
17.04.2014 15:50 18,9 C 17,8 C 39 % 1017,1 hPa 0,0 l/m 2 min 0 min 2,2 UV-I 643 W/m 2,6 km/h (1 Bft)
17.04.2014 15:52 18,7 C 17,8 C 37 % 1017,0 hPa 0,0 l/m 2 min 0 min 2,2 UV-I 636 W/m 12,9 km/h (3 Bft)
17.04.2014 15:54 18,9 C 17,8 C 39 % 1017,0 hPa 0,0 l/m 2 min 0 min 2,1 UV-I 631 W/m 12,9 km/h (3 Bft)
17.04.2014 15:56 18,9 C 17,8 C 39 % 1016,9 hPa 0,0 l/m 2 min 0 min 2,1 UV-I 629 W/m 10,3 km/h (2 Bft)
17.04.2014 15:58 18,9 C 17,8 C 37 % 1017,1 hPa 0,0 l/m 2 min 0 min 2,1 UV-I 626 W/m 12,9 km/h (3 Bft)
17.04.2014 16:00 18,8 C 17,8 C 36 % 1017,1 hPa 0,0 l/m 2 min 0 min 2,0 UV-I 619 W/m 20,6 km/h (4 Bft)
17.04.2014 16:02 18,6 C 17,8 C 38 % 1017,0 hPa 0,0 l/m 2 min 0 min 2,0 UV-I 621 W/m 15,4 km/h (3 Bft)
17.04.2014 16:06 18,6 C 17,8 C 41 % 1016,9 hPa 0,0 l/m 2 min 0 min 2,0 UV-I 610 W/m 7,7 km/h (2 Bft)
17.04.2014 16:08 18,9 C 17,8 C 40 % 1016,8 hPa 0,0 l/m 2 min 0 min 1,9 UV-I 605 W/m 18,0 km/h (3 Bft)
17.04.2014 16:10 18,9 C 17,8 C 37 % 1016,7 hPa 0,0 l/m 2 min 0 min 1,9 UV-I 599 W/m 15,4 km/h (3 Bft)
17.04.2014 16:12 18,7 C 17,8 C 37 % 1016,7 hPa 0,0 l/m 2 min 0 min 1,9 UV-I 598 W/m 23,2 km/h (4 Bft)
17.04.2014 16:14 18,7 C 17,8 C 37 % 1016,6 hPa 0,0 l/m 2 min 0 min 1,8 UV-I 596 W/m 10,3 km/h (2 Bft)
17.04.2014 16:16 18,5 C 17,8 C 38 % 1016,5 hPa 0,0 l/m 2 min 0 min 1,8 UV-I 594 W/m 12,9 km/h (3 Bft)
17.04.2014 16:18 18,7 C 18,9 C 38 % 1016,5 hPa 0,0 l/m 2 min 0 min 1,8 UV-I 584 W/m 10,3 km/h (2 Bft)
17.04.2014 16:20 18,8 C 20,0 C 38 % 1016,4 hPa 0,0 l/m 2 min 0 min 1,8 UV-I 591 W/m 12,9 km/h (3 Bft)
17.04.2014 16:22 18,9 C 20,6 C 38 % 1016,3 hPa 0,0 l/m 2 min 0 min 1,7 UV-I 587 W/m 15,4 km/h (3 Bft)
17.04.2014 16:24 18,9 C 20,6 C 37 % 1016,3 hPa 0,0 l/m 2 min 0 min 1,7 UV-I 578 W/m 10,3 km/h (2 Bft)
17.04.2014 16:26 19,1 C 20,6 C 39 % 1016,3 hPa 0,0 l/m 2 min 0 min 1,6 UV-I 547 W/m 10,3 km/h (2 Bft)
17.04.2014 16:28 19,1 C 20,0 C 39 % 1016,3 hPa 0,0 l/m 2 min 0 min 1,6 UV-I 540 W/m 12,9 km/h (3 Bft)
17.04.2014 16:30 19,0 C 19,4 C 37 % 1016,3 hPa 0,0 l/m 2 min 0 min 1,5 UV-I 526 W/m 20,6 km/h (4 Bft)
17.04.2014 16:32 18,9 C 19,4 C 37 % 1016,2 hPa 0,0 l/m 2 min 0 min 1,4 UV-I 473 W/m 7,7 km/h (2 Bft)
17.04.2014 16:34 18,8 C 19,4 C 39 % 1016,0 hPa 0,0 l/m 2 min 0 min 1,5 UV-I 508 W/m 18,0 km/h (3 Bft)
17.04.2014 16:36 18,8 C 18,9 C 37 % 1016,1 hPa 0,0 l/m 2 min 0 min 1,4 UV-I 503 W/m 7,7 km/h (2 Bft)
17.04.2014 16:38 18,9 C 18,9 C 37 % 1016,1 hPa 0,0 l/m 2 min 0 min 1,3 UV-I 464 W/m 12,9 km/h (3 Bft)
17.04.2014 16:40 18,8 C 18,3 C 38 % 1016,0 hPa 0,0 l/m 2 min 0 min 1,3 UV-I 473 W/m 2,6 km/h (1 Bft)
17.04.2014 16:42 18,7 C 18,3 C 39 % 1015,9 hPa 0,0 l/m 2 min 0 min 1,4 UV-I 534 W/m 2,6 km/h (1 Bft)
17.04.2014 16:44 18,8 C 18,3 C 38 % 1015,9 hPa 0,0 l/m 2 min 0 min 1,5 UV-I 557 W/m 7,7 km/h (2 Bft)
17.04.2014 16:46 18,8 C 18,3 C 38 % 1015,9 hPa 0,0 l/m 2 min 0 min 1,5 UV-I 552 W/m 7,7 km/h (2 Bft)
17.04.2014 16:48 18,8 C 17,8 C 37 % 1015,8 hPa 0,0 l/m 2 min 0 min 1,4 UV-I 545 W/m 5,1 km/h (1 Bft)
17.04.2014 16:50 18,8 C 17,8 C 38 % 1015,6 hPa 0,0 l/m 2 min 0 min 1,3 UV-I 499 W/m 10,3 km/h (2 Bft)
17.04.2014 16:52 18,7 C 17,8 C 38 % 1015,6 hPa 0,0 l/m 2 min 0 min 1,3 UV-I 471 W/m 12,9 km/h (3 Bft)
17.04.2014 16:54 18,7 C 17,8 C 39 % 1015,6 hPa 0,0 l/m 2 min 0 min 1,2 UV-I 448 W/m 18,0 km/h (3 Bft)
17.04.2014 16:56 18,7 C 17,8 C 38 % 1015,6 hPa 0,0 l/m 2 min 0 min 1,2 UV-I 441 W/m 7,7 km/h (2 Bft)
17.04.2014 16:58 18,6 C 17,2 C 37 % 1015,5 hPa 0,0 l/m 2 min 0 min 1,2 UV-I 452 W/m 2,6 km/h (1 Bft)
17.04.2014 17:00 18,6 C 17,2 C 39 % 1015,5 hPa 0,0 l/m 2 min 0 min 1,0 UV-I 446 W/m 0,0 km/h (0 Bft)
17.04.2014 17:02 18,6 C 17,2 C 39 % 1015,4 hPa 0,0 l/m 0 min 0 min 0,7 UV-I 155 W/m 7,7 km/h (2 Bft)
17.04.2014 17:06 18,2 C 16,7 C 37 % 1015,2 hPa 0,0 l/m 0 min 0 min 0,7 UV-I 227 W/m 18,0 km/h (3 Bft)
17.04.2014 17:08 18,0 C 16,7 C 38 % 1015,4 hPa 0,0 l/m 0 min 0 min 0,7 UV-I 276 W/m 10,3 km/h (2 Bft)
17.04.2014 17:10 17,9 C 16,7 C 39 % 1015,3 hPa 0,0 l/m 0 min 0 min 0,6 UV-I 260 W/m 10,3 km/h (2 Bft)
17.04.2014 17:12 17,9 C 16,7 C 39 % 1015,3 hPa 0,0 l/m 0 min 0 min 0,6 UV-I 248 W/m 7,7 km/h (2 Bft)
17.04.2014 17:14 17,9 C 16,7 C 39 % 1015,3 hPa 0,0 l/m 0 min 0 min 0,6 UV-I 253 W/m 18,0 km/h (3 Bft)
17.04.2014 17:16 18,0 C 17,2 C 39 % 1015,2 hPa 0,0 l/m 2 min 0 min 0,6 UV-I 327 W/m 20,6 km/h (4 Bft)
17.04.2014 17:18 18,1 C 17,2 C 40 % 1015,1 hPa 0,0 l/m 0 min 0 min 0,5 UV-I 250 W/m 5,1 km/h (1 Bft)
17.04.2014 17:20 18,1 C 17,2 C 40 % 1015,1 hPa 0,0 l/m 0 min 0 min 0,5 UV-I 211 W/m 10,3 km/h (2 Bft)
17.04.2014 17:22 17,9 C 16,7 C 39 % 1015,2 hPa 0,0 l/m 0 min 0 min 0,0 UV-I 197 W/m 10,3 km/h (2 Bft)
17.04.2014 17:24 17,8 C 16,7 C 39 % 1015,2 hPa 0,0 l/m 0 min 0 min 0,0 UV-I 206 W/m 7,7 km/h (2 Bft)
17.04.2014 17:26 17,8 C 16,7 C 41 % 1015,2 hPa 0,0 l/m 0 min 0 min 0,0 UV-I 204 W/m 12,9 km/h (3 Bft)
17.04.2014 17:28 17,7 C 16,7 C 39 % 1015,1 hPa 0,0 l/m 0 min 0 min 0,0 UV-I 204 W/m 5,1 km/h (1 Bft)
17.04.2014 17:30 17,7 C 16,7 C 41 % 1015,0 hPa 0,0 l/m 0 min 0 min 0,0 UV-I 207 W/m 12,9 km/h (3 Bft)
17.04.2014 17:32 17,7 C 16,7 C 40 % 1015,1 hPa 0,0 l/m 0 min 0 min 0,0 UV-I 197 W/m 7,7 km/h (2 Bft)
17.04.2014 17:34 17,6 C 16,7 C 41 % 1015,1 hPa 0,0 l/m 0 min 0 min 0,0 UV-I 186 W/m 10,3 km/h (2 Bft)
17.04.2014 17:36 17,6 C 16,7 C 40 % 1015,0 hPa 0,0 l/m 0 min 0 min 0,0 UV-I 207 W/m 10,3 km/h (2 Bft)
17.04.2014 17:38 17,6 C 16,7 C 41 % 1015,0 hPa 0,0 l/m 2 min 0 min 0,0 UV-I 302 W/m 7,7 km/h (2 Bft)
17.04.2014 17:40 17,6 C 16,7 C 42 % 1015,0 hPa 0,0 l/m 0 min 0 min 0,0 UV-I 185 W/m 10,3 km/h (2 Bft)
17.04.2014 17:42 17,6 C 16,7 C 40 % 1015,0 hPa 0,0 l/m 0 min 0 min 0,0 UV-I 193 W/m 10,3 km/h (2 Bft)
17.04.2014 17:44 17,6 C 16,7 C 41 % 1015,0 hPa 0,0 l/m 0 min 0 min 0,0 UV-I 190 W/m 7,7 km/h (2 Bft)
17.04.2014 17:46 17,6 C 16,7 C 40 % 1015,0 hPa 0,0 l/m 0 min 0 min 0,0 UV-I 193 W/m 5,1 km/h (1 Bft)
17.04.2014 17:48 17,6 C 16,7 C 41 % 1015,0 hPa 0,0 l/m 0 min 0 min 0,0 UV-I 192 W/m 10,3 km/h (2 Bft)
17.04.2014 17:50 17,7 C 16,7 C 42 % 1015,0 hPa 0,0 l/m 2 min 0 min 0,0 UV-I 244 W/m 18,0 km/h (3 Bft)
17.04.2014 17:52 17,7 C 16,7 C 42 % 1014,9 hPa 0,0 l/m 2 min 0 min 0,0 UV-I 327 W/m 10,3 km/h (2 Bft)
17.04.2014 17:54 17,9 C 16,7 C 40 % 1014,9 hPa 0,0 l/m 2 min 0 min 0,0 UV-I 408 W/m 7,7 km/h (2 Bft)
17.04.2014 17:56 18,0 C 16,7 C 39 % 1014,8 hPa 0,0 l/m 2 min 0 min 0,0 UV-I 418 W/m 18,0 km/h (3 Bft)
17.04.2014 17:58 18,1 C 16,7 C 39 % 1014,8 hPa 0,0 l/m 2 min 0 min 0,0 UV-I 236 W/m 15,4 km/h (3 Bft)
17.04.2014 18:00 18,1 C 16,7 C 39 % 1014,8 hPa 0,0 l/m 0 min 0 min 0,0 UV-I 202 W/m 15,4 km/h (3 Bft)
17.04.2014 18:02 18,0 C 16,7 C 39 % 1014,8 hPa 0,0 l/m 0 min 0 min 0,0 UV-I 158 W/m 15,4 km/h (3 Bft)
17.04.2014 18:06 17,7 C 16,1 C 39 % 1014,8 hPa 0,0 l/m 0 min 0 min 0,0 UV-I 128 W/m 23,2 km/h (4 Bft)
17.04.2014 18:08 17,6 C 16,1 C 39 % 1014,8 hPa 0,0 l/m 0 min 0 min 0,0 UV-I 132 W/m 7,7 km/h (2 Bft)
17.04.2014 18:10 17,5 C 16,1 C 39 % 1014,7 hPa 0,0 l/m 0 min 0 min 0,0 UV-I 144 W/m 12,9 km/h (3 Bft)
17.04.2014 18:12 17,4 C 16,1 C 39 % 1014,7 hPa 0,0 l/m 0 min 0 min 0,0 UV-I 169 W/m 12,9 km/h (3 Bft)
17.04.2014 18:14 17,4 C 16,1 C 39 % 1014,7 hPa 0,0 l/m 0 min 0 min 0,0 UV-I 163 W/m 23,2 km/h (4 Bft)
17.04.2014 18:16 17,3 C 16,1 C 40 % 1014,7 hPa 0,0 l/m 0 min 0 min 0,0 UV-I 158 W/m 7,7 km/h (2 Bft)
17.04.2014 18:18 17,3 C 16,1 C 40 % 1014,6 hPa 0,0 l/m 0 min 0 min 0,0 UV-I 153 W/m 12,9 km/h (3 Bft)
17.04.2014 18:20 17,3 C 15,6 C 40 % 1014,6 hPa 0,0 l/m 0 min 0 min 0,0 UV-I 146 W/m 18,0 km/h (3 Bft)
17.04.2014 18:22 17,2 C 15,6 C 40 % 1014,6 hPa 0,0 l/m 0 min 0 min 0,0 UV-I 142 W/m 0,0 km/h (0 Bft)
17.04.2014 18:24 17,3 C 15,6 C 41 % 1014,5 hPa 0,0 l/m 0 min 0 min 0,0 UV-I 142 W/m 10,3 km/h (2 Bft)
17.04.2014 18:26 17,3 C 15,6 C 41 % 1014,6 hPa 0,0 l/m 0 min 0 min 0,0 UV-I 139 W/m 10,3 km/h (2 Bft)
17.04.2014 18:28 17,3 C 15,6 C 42 % 1014,5 hPa 0,0 l/m 0 min 0 min 0,0 UV-I 139 W/m 7,7 km/h (2 Bft)
17.04.2014 18:30 17,3 C 15,6 C 42 % 1014,6 hPa 0,0 l/m 0 min 0 min 0,0 UV-I 144 W/m 0,0 km/h (0 Bft)
17.04.2014 18:32 17,3 C 15,6 C 41 % 1014,6 hPa 0,0 l/m 0 min 0 min 0,0 UV-I 137 W/m 7,7 km/h (2 Bft)
17.04.2014 18:34 17,3 C 15,6 C 40 % 1014,6 hPa 0,0 l/m 0 min 0 min 0,0 UV-I 127 W/m 5,1 km/h (1 Bft)
17.04.2014 18:36 17,3 C 15,6 C 40 % 1014,6 hPa 0,0 l/m 0 min 0 min 0,0 UV-I 114 W/m 10,3 km/h (2 Bft)
17.04.2014 18:38 17,2 C 15,6 C 41 % 1014,5 hPa 0,0 l/m 0 min 0 min 0,0 UV-I 95 W/m 10,3 km/h (2 Bft)
17.04.2014 18:40 17,2 C 15,6 C 41 % 1014,5 hPa 0,0 l/m 0 min 0 min 0,0 UV-I 83 W/m 0,0 km/h (0 Bft)
17.04.2014 18:42 17,1 C 15,0 C 41 % 1014,5 hPa 0,0 l/m 0 min 0 min 0,0 UV-I 72 W/m 12,9 km/h (3 Bft)
17.04.2014 18:44 17,1 C 15,0 C 40 % 1014,5 hPa 0,0 l/m 0 min 0 min 0,0 UV-I 63 W/m 10,3 km/h (2 Bft)
17.04.2014 18:46 17,0 C 15,0 C 41 % 1014,4 hPa 0,0 l/m 0 min 0 min 0,0 UV-I 62 W/m 12,9 km/h (3 Bft)
17.04.2014 18:48 17,0 C 15,0 C 41 % 1014,4 hPa 0,0 l/m 0 min 0 min 0,0 UV-I 60 W/m 12,9 km/h (3 Bft)
17.04.2014 18:50 16,9 C 15,0 C 41 % 1014,4 hPa 0,0 l/m 0 min 0 min 0,0 UV-I 58 W/m 18,0 km/h (3 Bft)
17.04.2014 18:52 16,9 C 15,0 C 41 % 1014,3 hPa 0,0 l/m 0 min 0 min 0,0 UV-I 54 W/m 2,6 km/h (1 Bft)
17.04.2014 18:54 16,9 C 15,0 C 42 % 1014,2 hPa 0,0 l/m 0 min 0 min 0,0 UV-I 54 W/m 10,3 km/h (2 Bft)
17.04.2014 18:56 16,8 C 15,0 C 41 % 1014,2 hPa 0,0 l/m 0 min 0 min 0,0 UV-I 60 W/m 7,7 km/h (2 Bft)
17.04.2014 18:58 16,8 C 15,0 C 42 % 1014,2 hPa 0,0 l/m 0 min 0 min 0,0 UV-I 62 W/m 2,6 km/h (1 Bft)
17.04.2014 19:00 16,7 C 15,0 C 43 % 1014,1 hPa 0,0 l/m 0 min 0 min 0,0 UV-I 65 W/m 12,9 km/h (3 Bft)
17.04.2014 19:02 16,7 C 15,0 C 44 % 1014,1 hPa 0,0 l/m 0 min 0 min 0,0 UV-I 63 W/m 0,0 km/h (0 Bft)
17.04.2014 19:06 16,7 C 15,0 C 43 % 1014,1 hPa 0,0 l/m 0 min 0 min 0,0 UV-I 54 W/m 2,6 km/h (1 Bft)
17.04.2014 19:08 16,7 C 15,0 C 42 % 1014,1 hPa 0,0 l/m 0 min 0 min 0,0 UV-I 51 W/m 5,1 km/h (1 Bft)
17.04.2014 19:10 16,7 C 14,4 C 42 % 1014,1 hPa 0,0 l/m 0 min 0 min 0,0 UV-I 47 W/m 2,6 km/h (1 Bft)
17.04.2014 19:12 16,7 C 14,4 C 43 % 1014,1 hPa 0,0 l/m 0 min 0 min 0,0 UV-I 44 W/m 0,0 km/h (0 Bft)
17.04.2014 19:14 16,6 C 14,4 C 44 % 1014,1 hPa 0,0 l/m 0 min 0 min 0,0 UV-I 40 W/m 0,0 km/h (0 Bft)
17.04.2014 19:16 16,6 C 14,4 C 44 % 1014,0 hPa 0,0 l/m 0 min 0 min 0,0 UV-I 39 W/m 0,0 km/h (0 Bft)
17.04.2014 19:18 16,5 C 14,4 C 44 % 1014,0 hPa 0,0 l/m 0 min 0 min 0,0 UV-I 37 W/m 0,0 km/h (0 Bft)
17.04.2014 19:20 16,5 C 14,4 C 45 % 1014,0 hPa 0,0 l/m 0 min 0 min 0,0 UV-I 37 W/m 0,0 km/h (0 Bft)
17.04.2014 19:22 16,4 C 14,4 C 46 % 1014,0 hPa 0,0 l/m 0 min 0 min 0,0 UV-I 35 W/m 0,0 km/h (0 Bft)
17.04.2014 19:24 16,3 C 13,9 C 44 % 1014,0 hPa 0,0 l/m 0 min 2 min 0,0 UV-I 32 W/m 7,7 km/h (2 Bft)
17.04.2014 19:26 16,3 C 13,9 C 45 % 1014,0 hPa 0,0 l/m 0 min 0 min 0,0 UV-I 26 W/m 0,0 km/h (0 Bft)
17.04.2014 19:28 16,3 C 13,9 C 45 % 1014,0 hPa 0,0 l/m 0 min 0 min 0,0 UV-I 25 W/m 7,7 km/h (2 Bft)
17.04.2014 19:30 16,3 C 13,9 C 45 % 1014,0 hPa 0,0 l/m 0 min 0 min 0,0 UV-I 25 W/m 0,0 km/h (0 Bft)
17.04.2014 19:32 16,2 C 13,9 C 45 % 1014,0 hPa 0,0 l/m 0 min 0 min 0,0 UV-I 25 W/m 2,6 km/h (1 Bft)
17.04.2014 19:34 16,3 C 13,9 C 44 % 1014,0 hPa 0,0 l/m 0 min 0 min 0,0 UV-I 25 W/m 0,0 km/h (0 Bft)
17.04.2014 19:36 16,2 C 13,9 C 45 % 1014,0 hPa 0,0 l/m 0 min 0 min 0,0 UV-I 23 W/m 0,0 km/h (0 Bft)
17.04.2014 19:38 16,2 C 13,9 C 44 % 1014,0 hPa 0,0 l/m 0 min 0 min 0,0 UV-I 23 W/m 2,6 km/h (1 Bft)
17.04.2014 19:40 16,2 C 13,9 C 44 % 1014,0 hPa 0,0 l/m 0 min 0 min 0,0 UV-I 25 W/m 2,6 km/h (1 Bft)
17.04.2014 19:42 16,2 C 13,9 C 45 % 1014,0 hPa 0,0 l/m 0 min 2 min 0,0 UV-I 25 W/m 2,6 km/h (1 Bft)
17.04.2014 19:44 16,2 C 13,9 C 45 % 1014,0 hPa 0,0 l/m 0 min 0 min 0,0 UV-I 23 W/m 18,0 km/h (3 Bft)
17.04.2014 19:46 16,1 C 13,9 C 45 % 1014,0 hPa 0,0 l/m 0 min 0 min 0,0 UV-I 23 W/m 2,6 km/h (1 Bft)
17.04.2014 19:48 16,1 C 13,9 C 45 % 1013,9 hPa 0,0 l/m 0 min 0 min 0,0 UV-I 21 W/m 0,0 km/h (0 Bft)
17.04.2014 19:50 16,1 C 13,9 C 45 % 1013,9 hPa 0,0 l/m 0 min 0 min 0,0 UV-I 19 W/m 0,0 km/h (0 Bft)
17.04.2014 19:52 16,0 C 13,9 C 45 % 1013,9 hPa 0,0 l/m 0 min 0 min 0,0 UV-I 19 W/m 2,6 km/h (1 Bft)
17.04.2014 19:54 15,9 C 13,9 C 46 % 1013,9 hPa 0,0 l/m 0 min 0 min 0,0 UV-I 19 W/m 0,0 km/h (0 Bft)
17.04.2014 19:56 15,9 C 13,9 C 46 % 1013,9 hPa 0,0 l/m 0 min 0 min 0,0 UV-I 18 W/m 0,0 km/h (0 Bft)
17.04.2014 19:58 15,8 C 13,3 C 46 % 1013,9 hPa 0,0 l/m 0 min 0 min 0,0 UV-I 18 W/m 10,3 km/h (2 Bft)
17.04.2014 20:00 15,8 C 13,3 C 46 % 1013,9 hPa 0,0 l/m 0 min 0 min 0,0 UV-I 14 W/m 0,0 km/h (0 Bft)
17.04.2014 20:02 15,8 C 13,3 C 45 % 1013,8 hPa 0,0 l/m 0 min 0 min 0,0 UV-I 12 W/m 0,0 km/h (0 Bft)
17.04.2014 20:06 15,8 C 13,3 C 47 % 1013,8 hPa 0,0 l/m 0 min 0 min 0,0 UV-I 9 W/m 0,0 km/h (0 Bft)
17.04.2014 20:08 15,8 C 13,3 C 46 % 1013,8 hPa 0,0 l/m 0 min 0 min 0,0 UV-I 9 W/m 0,0 km/h (0 Bft)
17.04.2014 20:10 15,7 C 13,3 C 46 % 1013,8 hPa 0,0 l/m 0 min 0 min 0,0 UV-I 7 W/m 0,0 km/h (0 Bft)
17.04.2014 20:12 15,7 C 13,3 C 46 % 1013,8 hPa 0,0 l/m 0 min 0 min 0,0 UV-I 7 W/m 7,7 km/h (2 Bft)
17.04.2014 20:14 15,7 C 13,3 C 46 % 1013,8 hPa 0,0 l/m 0 min 0 min 0,0 UV-I 5 W/m 0,0 km/h (0 Bft)
17.04.2014 20:16 15,7 C 13,3 C 46 % 1013,8 hPa 0,0 l/m 0 min 0 min 0,0 UV-I 5 W/m 0,0 km/h (0 Bft)
17.04.2014 20:18 15,7 C 13,3 C 46 % 1013,9 hPa 0,0 l/m 0 min 0 min 0,0 UV-I 0 W/m 7,7 km/h (2 Bft)
17.04.2014 20:20 15,6 C 13,3 C 46 % 1013,9 hPa 0,0 l/m 0 min 0 min 0,0 UV-I 0 W/m 0,0 km/h (0 Bft)
17.04.2014 20:22 15,6 C 13,3 C 46 % 1013,9 hPa 0,0 l/m 0 min 0 min 0,0 UV-I 0 W/m 2,6 km/h (1 Bft)
17.04.2014 20:24 15,6 C 13,3 C 46 % 1013,9 hPa 0,0 l/m 0 min 0 min 0,0 UV-I 0 W/m 0,0 km/h (0 Bft)
17.04.2014 20:26 15,6 C 13,3 C 46 % 1013,9 hPa 0,0 l/m 0 min 0 min 0,0 UV-I 0 W/m 0,0 km/h (0 Bft)
17.04.2014 20:28 15,5 C 13,3 C 47 % 1014,0 hPa 0,0 l/m 0 min 0 min 0,0 UV-I 0 W/m 10,3 km/h (2 Bft)
17.04.2014 20:30 15,4 C 13,3 C 47 % 1013,9 hPa 0,0 l/m 0 min 0 min 0,0 UV-I 0 W/m 0,0 km/h (0 Bft)
17.04.2014 20:32 15,4 C 13,3 C 46 % 1013,9 hPa 0,0 l/m 0 min 0 min 0,0 UV-I 0 W/m 0,0 km/h (0 Bft)
17.04.2014 20:34 15,4 C 13,3 C 47 % 1013,9 hPa 0,0 l/m 0 min 0 min 0,0 UV-I 0 W/m 0,0 km/h (0 Bft)
17.04.2014 20:36 15,4 C 12,8 C 48 % 1014,0 hPa 0,0 l/m 0 min 0 min 0,0 UV-I 0 W/m 0,0 km/h (0 Bft)
17.04.2014 20:38 15,3 C 12,8 C 47 % 1013,9 hPa 0,0 l/m 0 min 0 min 0,0 UV-I 0 W/m 0,0 km/h (0 Bft)
17.04.2014 20:40 15,3 C 12,8 C 47 % 1013,9 hPa 0,0 l/m 0 min 0 min 0,0 UV-I 0 W/m 0,0 km/h (0 Bft)
17.04.2014 20:42 15,3 C 12,8 C 47 % 1013,9 hPa 0,0 l/m 0 min 0 min 0,0 UV-I 0 W/m 5,1 km/h (1 Bft)
17.04.2014 20:44 15,3 C 12,8 C 46 % 1013,9 hPa 0,0 l/m 0 min 0 min 0,0 UV-I 0 W/m 2,6 km/h (1 Bft)
17.04.2014 20:46 15,3 C 12,8 C 47 % 1013,9 hPa 0,0 l/m 0 min 0 min 0,0 UV-I 0 W/m 0,0 km/h (0 Bft)
17.04.2014 20:48 15,2 C 12,8 C 48 % 1013,9 hPa 0,0 l/m 0 min 0 min 0,0 UV-I 0 W/m 0,0 km/h (0 Bft)
17.04.2014 20:50 15,2 C 12,8 C 47 % 1013,9 hPa 0,0 l/m 0 min 0 min 0,0 UV-I 0 W/m 2,6 km/h (1 Bft)
17.04.2014 20:52 15,2 C 12,8 C 48 % 1013,9 hPa 0,0 l/m 0 min 0 min 0,0 UV-I 0 W/m 0,0 km/h (0 Bft)
17.04.2014 20:54 15,1 C 12,8 C 47 % 1013,8 hPa 0,0 l/m 0 min 0 min 0,0 UV-I 0 W/m 0,0 km/h (0 Bft)
17.04.2014 20:56 15,1 C 12,8 C 48 % 1013,7 hPa 0,0 l/m 0 min 0 min 0,0 UV-I 0 W/m 0,0 km/h (0 Bft)
17.04.2014 20:58 15,1 C 12,8 C 47 % 1013,8 hPa 0,0 l/m 0 min 0 min 0,0 UV-I 0 W/m 2,6 km/h (1 Bft)
17.04.2014 21:00 15,1 C 12,8 C 47 % 1014,0 hPa 0,0 l/m 0 min 0 min 0,0 UV-I 0 W/m 0,0 km/h (0 Bft)
17.04.2014 21:02 15,1 C 12,2 C 49 % 1014,0 hPa 0,0 l/m 0 min 2 min 0,0 UV-I 0 W/m 2,6 km/h (1 Bft)
17.04.2014 21:06 14,8 C 11,7 C 53 % 1014,1 hPa 0,0 l/m 0 min 2 min 0,0 UV-I 0 W/m 18,0 km/h (3 Bft)
17.04.2014 21:08 14,6 C 11,1 C 54 % 1014,0 hPa 0,0 l/m 0 min 2 min 0,0 UV-I 0 W/m 12,9 km/h (3 Bft)
17.04.2014 21:10 14,4 C 11,7 C 54 % 1013,8 hPa 0,0 l/m 0 min 0 min 0,0 UV-I 0 W/m 5,1 km/h (1 Bft)
17.04.2014 21:12 14,3 C 11,7 C 54 % 1013,7 hPa 0,0 l/m 0 min 0 min 0,0 UV-I 0 W/m 0,0 km/h (0 Bft)
17.04.2014 21:14 14,2 C 11,7 C 54 % 1013,7 hPa 0,0 l/m 0 min 0 min 0,0 UV-I 0 W/m 5,1 km/h (1 Bft)
17.04.2014 21:16 14,2 C 11,7 C 54 % 1013,7 hPa 0,0 l/m 0 min 0 min 0,0 UV-I 0 W/m 0,0 km/h (0 Bft)
17.04.2014 21:18 14,2 C 11,7 C 53 % 1013,7 hPa 0,0 l/m 0 min 0 min 0,0 UV-I 0 W/m 0,0 km/h (0 Bft)
17.04.2014 21:20 14,2 C 12,2 C 52 % 1013,7 hPa 0,0 l/m 0 min 0 min 0,0 UV-I 0 W/m 0,0 km/h (0 Bft)
17.04.2014 21:22 14,2 C 12,2 C 52 % 1013,6 hPa 0,0 l/m 0 min 0 min 0,0 UV-I 0 W/m 0,0 km/h (0 Bft)
17.04.2014 21:24 14,2 C 12,2 C 52 % 1013,5 hPa 0,0 l/m 0 min 0 min 0,0 UV-I 0 W/m 0,0 km/h (0 Bft)
17.04.2014 21:26 14,2 C 12,2 C 51 % 1013,5 hPa 0,0 l/m 0 min 0 min 0,0 UV-I 0 W/m 12,9 km/h (3 Bft)
17.04.2014 21:28 14,2 C 12,2 C 52 % 1013,6 hPa 0,0 l/m 0 min 0 min 0,0 UV-I 0 W/m 7,7 km/h (2 Bft)
17.04.2014 21:30 14,2 C 12,2 C 52 % 1013,5 hPa 0,0 l/m 0 min 0 min 0,0 UV-I 0 W/m 2,6 km/h (1 Bft)
17.04.2014 21:32 14,2 C 12,2 C 51 % 1013,5 hPa 0,0 l/m 0 min 0 min 0,0 UV-I 0 W/m 7,7 km/h (2 Bft)
17.04.2014 21:34 14,2 C 12,2 C 52 % 1013,5 hPa 0,0 l/m 0 min 0 min 0,0 UV-I 0 W/m 0,0 km/h (0 Bft)
17.04.2014 21:36 14,2 C 12,2 C 52 % 1013,4 hPa 0,0 l/m 0 min 0 min 0,0 UV-I 0 W/m 2,6 km/h (1 Bft)
17.04.2014 21:38 14,2 C 12,2 C 52 % 1013,4 hPa 0,0 l/m 0 min 0 min 0,0 UV-I 0 W/m 5,1 km/h (1 Bft)
17.04.2014 21:40 14,2 C 12,2 C 52 % 1013,4 hPa 0,0 l/m 0 min 0 min 0,0 UV-I 0 W/m 0,0 km/h (0 Bft)
17.04.2014 21:42 14,3 C 12,2 C 52 % 1013,3 hPa 0,0 l/m 0 min 0 min 0,0 UV-I 0 W/m 0,0 km/h (0 Bft)
17.04.2014 21:44 14,2 C 12,2 C 52 % 1013,3 hPa 0,0 l/m 0 min 0 min 0,0 UV-I 0 W/m 10,3 km/h (2 Bft)
17.04.2014 21:46 14,2 C 12,2 C 52 % 1013,2 hPa 0,0 l/m 0 min 0 min 0,0 UV-I 0 W/m 7,7 km/h (2 Bft)
17.04.2014 21:48 14,2 C 12,2 C 52 % 1013,2 hPa 0,0 l/m 0 min 0 min 0,0 UV-I 0 W/m 0,0 km/h (0 Bft)
17.04.2014 21:50 14,2 C 12,2 C 53 % 1013,2 hPa 0,0 l/m 0 min 0 min 0,0 UV-I 0 W/m 2,6 km/h (1 Bft)
17.04.2014 21:52 14,2 C 12,2 C 53 % 1013,1 hPa 0,0 l/m 0 min 2 min 0,0 UV-I 0 W/m 0,0 km/h (0 Bft)
17.04.2014 21:54 14,2 C 12,2 C 53 % 1013,1 hPa 0,0 l/m 0 min 0 min 0,0 UV-I 0 W/m 0,0 km/h (0 Bft)
17.04.2014 21:56 14,2 C 12,2 C 53 % 1013,1 hPa 0,0 l/m 0 min 0 min 0,0 UV-I 0 W/m 2,6 km/h (1 Bft)
17.04.2014 21:58 14,1 C 12,2 C 53 % 1013,1 hPa 0,0 l/m 0 min 0 min 0,0 UV-I 0 W/m 0,0 km/h (0 Bft)
17.04.2014 22:00 14,1 C 12,2 C 54 % 1013,2 hPa 0,0 l/m 0 min 0 min 0,0 UV-I 0 W/m 0,0 km/h (0 Bft)
17.04.2014 22:02 14,0 C 12,2 C 54 % 1013,3 hPa 0,0 l/m 0 min 0 min 0,0 UV-I 0 W/m 0,0 km/h (0 Bft)
17.04.2014 22:06 13,9 C 11,7 C 55 % 1013,3 hPa 0,0 l/m 0 min 0 min 0,0 UV-I 0 W/m 0,0 km/h (0 Bft)
17.04.2014 22:08 13,8 C 11,7 C 55 % 1013,2 hPa 0,0 l/m 0 min 0 min 0,0 UV-I 0 W/m 7,7 km/h (2 Bft)
17.04.2014 22:10 13,8 C 11,7 C 55 % 1013,2 hPa 0,0 l/m 0 min 0 min 0,0 UV-I 0 W/m 0,0 km/h (0 Bft)
17.04.2014 22:12 13,8 C 11,7 C 55 % 1013,1 hPa 0,0 l/m 0 min 0 min 0,0 UV-I 0 W/m 2,6 km/h (1 Bft)
17.04.2014 22:14 13,8 C 11,7 C 55 % 1013,2 hPa 0,0 l/m 0 min 0 min 0,0 UV-I 0 W/m 7,7 km/h (2 Bft)
17.04.2014 22:16 13,8 C 11,7 C 55 % 1013,1 hPa 0,0 l/m 0 min 0 min 0,0 UV-I 0 W/m 0,0 km/h (0 Bft)
17.04.2014 22:18 13,8 C 11,7 C 55 % 1013,2 hPa 0,0 l/m 0 min 0 min 0,0 UV-I 0 W/m 7,7 km/h (2 Bft)
17.04.2014 22:20 13,8 C 11,7 C 55 % 1013,1 hPa 0,0 l/m 0 min 0 min 0,0 UV-I 0 W/m 0,0 km/h (0 Bft)
17.04.2014 22:22 13,8 C 11,7 C 55 % 1013,1 hPa 0,0 l/m 0 min 0 min 0,0 UV-I 0 W/m 2,6 km/h (1 Bft)
17.04.2014 22:24 13,8 C 11,7 C 56 % 1013,1 hPa 0,0 l/m 0 min 0 min 0,0 UV-I 0 W/m 0,0 km/h (0 Bft)
17.04.2014 22:26 13,8 C 11,7 C 57 % 1013,1 hPa 0,0 l/m 0 min 0 min 0,0 UV-I 0 W/m 0,0 km/h (0 Bft)
17.04.2014 22:28 13,7 C 11,7 C 57 % 1013,1 hPa 0,0 l/m 0 min 0 min 0,0 UV-I 0 W/m 2,6 km/h (1 Bft)
17.04.2014 22:30 13,7 C 11,7 C 57 % 1013,1 hPa 0,0 l/m 0 min 0 min 0,0 UV-I 0 W/m 5,1 km/h (1 Bft)
17.04.2014 22:32 13,7 C 11,7 C 58 % 1013,1 hPa 0,0 l/m 0 min 0 min 0,0 UV-I 0 W/m 7,7 km/h (2 Bft)
17.04.2014 22:34 13,6 C 11,7 C 58 % 1013,1 hPa 0,0 l/m 0 min 0 min 0,0 UV-I 0 W/m 5,1 km/h (1 Bft)
17.04.2014 22:36 13,6 C 11,7 C 59 % 1013,1 hPa 0,0 l/m 0 min 0 min 0,0 UV-I 0 W/m 2,6 km/h (1 Bft)
17.04.2014 22:38 13,6 C 11,7 C 59 % 1013,1 hPa 0,0 l/m 0 min 0 min 0,0 UV-I 0 W/m 0,0 km/h (0 Bft)
17.04.2014 22:40 13,5 C 11,7 C 60 % 1013,1 hPa 0,0 l/m 0 min 0 min 0,0 UV-I 0 W/m 0,0 km/h (0 Bft)
17.04.2014 22:42 13,4 C 11,7 C 60 % 1013,1 hPa 0,0 l/m 0 min 0 min 0,0 UV-I 0 W/m 0,0 km/h (0 Bft)
17.04.2014 22:44 13,4 C 11,7 C 60 % 1013,1 hPa 0,0 l/m 0 min 0 min 0,0 UV-I 0 W/m 10,3 km/h (2 Bft)
17.04.2014 22:46 13,4 C 11,7 C 61 % 1013,1 hPa 0,0 l/m 0 min 0 min 0,0 UV-I 0 W/m 2,6 km/h (1 Bft)
17.04.2014 22:48 13,4 C 11,7 C 61 % 1013,0 hPa 0,0 l/m 0 min 0 min 0,0 UV-I 0 W/m 0,0 km/h (0 Bft)
17.04.2014 22:50 13,3 C 11,7 C 61 % 1013,1 hPa 0,0 l/m 0 min 0 min 0,0 UV-I 0 W/m 7,7 km/h (2 Bft)
17.04.2014 22:52 13,3 C 11,7 C 61 % 1013,1 hPa 0,0 l/m 0 min 0 min 0,0 UV-I 0 W/m 5,1 km/h (1 Bft)
17.04.2014 22:54 13,3 C 11,7 C 61 % 1013,1 hPa 0,0 l/m 0 min 0 min 0,0 UV-I 0 W/m 10,3 km/h (2 Bft)
17.04.2014 22:56 13,3 C 11,7 C 61 % 1013,1 hPa 0,0 l/m 0 min 0 min 0,0 UV-I 0 W/m 23,2 km/h (4 Bft)
17.04.2014 22:58 13,3 C 11,7 C 61 % 1013,0 hPa 0,0 l/m 0 min 0 min 0,0 UV-I 0 W/m 12,9 km/h (3 Bft)
17.04.2014 23:00 13,3 C 11,7 C 61 % 1013,0 hPa 0,0 l/m 0 min 0 min 0,0 UV-I 0 W/m 0,0 km/h (0 Bft)
17.04.2014 23:02 13,2 C 11,7 C 62 % 1013,0 hPa 0,0 l/m 0 min 0 min 0,0 UV-I 0 W/m 7,7 km/h (2 Bft)
17.04.2014 23:06 13,2 C 11,7 C 62 % 1013,0 hPa 0,0 l/m 0 min 0 min 0,0 UV-I 0 W/m 7,7 km/h (2 Bft)
17.04.2014 23:08 13,1 C 11,7 C 62 % 1013,0 hPa 0,0 l/m 0 min 0 min 0,0 UV-I 0 W/m 0,0 km/h (0 Bft)
17.04.2014 23:10 13,1 C 11,7 C 63 % 1013,0 hPa 0,0 l/m 0 min 0 min 0,0 UV-I 0 W/m 5,1 km/h (1 Bft)
17.04.2014 23:12 13,0 C 11,7 C 63 % 1013,1 hPa 0,0 l/m 0 min 0 min 0,0 UV-I 0 W/m 18,0 km/h (3 Bft)
17.04.2014 23:14 13,0 C 11,7 C 63 % 1013,0 hPa 0,0 l/m 0 min 0 min 0,0 UV-I 0 W/m 23,2 km/h (4 Bft)
17.04.2014 23:16 12,9 C 11,1 C 64 % 1013,0 hPa 0,0 l/m 0 min 0 min 0,0 UV-I 0 W/m 28,3 km/h (4 Bft)
17.04.2014 23:18 12,8 C 11,1 C 65 % 1013,0 hPa 0,0 l/m 0 min 0 min 0,0 UV-I 0 W/m 25,7 km/h (4 Bft)
17.04.2014 23:20 12,7 C 11,1 C 65 % 1013,1 hPa 0,0 l/m 0 min 0 min 0,0 UV-I 0 W/m 12,9 km/h (3 Bft)
17.04.2014 23:22 12,7 C 11,1 C 66 % 1013,0 hPa 0,0 l/m 0 min 0 min 0,0 UV-I 0 W/m 15,4 km/h (3 Bft)
17.04.2014 23:24 12,6 C 11,1 C 67 % 1013,0 hPa 0,0 l/m 0 min 0 min 0,0 UV-I 0 W/m 12,9 km/h (3 Bft)
17.04.2014 23:26 12,4 C 11,1 C 67 % 1013,1 hPa 0,0 l/m 0 min 0 min 0,0 UV-I 0 W/m 12,9 km/h (3 Bft)
17.04.2014 23:28 12,4 C 11,1 C 69 % 1013,1 hPa 0,0 l/m 0 min 0 min 0,0 UV-I 0 W/m 15,4 km/h (3 Bft)
17.04.2014 23:30 12,3 C 10,6 C 69 % 1013,0 hPa 0,0 l/m 0 min 0 min 0,0 UV-I 0 W/m 10,3 km/h (2 Bft)
17.04.2014 23:32 12,2 C 10,6 C 69 % 1013,0 hPa 0,0 l/m 0 min 0 min 0,0 UV-I 0 W/m 10,3 km/h (2 Bft)
17.04.2014 23:34 12,2 C 10,6 C 70 % 1013,1 hPa 0,0 l/m 0 min 0 min 0,0 UV-I 0 W/m 10,3 km/h (2 Bft)
17.04.2014 23:36 12,1 C 10,6 C 70 % 1013,0 hPa 0,0 l/m 0 min 0 min 0,0 UV-I 0 W/m 10,3 km/h (2 Bft)
17.04.2014 23:38 12,1 C 10,6 C 71 % 1013,1 hPa 0,0 l/m 0 min 0 min 0,0 UV-I 0 W/m 10,3 km/h (2 Bft)
17.04.2014 23:40 12,0 C 10,6 C 71 % 1013,0 hPa 0,0 l/m 0 min 0 min 0,0 UV-I 0 W/m 20,6 km/h (4 Bft)
17.04.2014 23:42 12,0 C 10,6 C 71 % 1013,0 hPa 0,0 l/m 0 min 0 min 0,0 UV-I 0 W/m 18,0 km/h (3 Bft)
17.04.2014 23:44 11,9 C 10,6 C 71 % 1013,1 hPa 0,0 l/m 0 min 0 min 0,0 UV-I 0 W/m 12,9 km/h (3 Bft)
17.04.2014 23:46 11,9 C 10,6 C 72 % 1013,1 hPa 0,0 l/m 0 min 0 min 0,0 UV-I 0 W/m 7,7 km/h (2 Bft)
17.04.2014 23:48 11,8 C 10,6 C 72 % 1013,1 hPa 0,0 l/m 0 min 0 min 0,0 UV-I 0 W/m 10,3 km/h (2 Bft)
17.04.2014 23:50 11,8 C 10,6 C 72 % 1013,0 hPa 0,0 l/m 0 min 0 min 0,0 UV-I 0 W/m 20,6 km/h (4 Bft)
17.04.2014 23:52 11,8 C 10,6 C 72 % 1013,0 hPa 0,0 l/m 0 min 0 min 0,0 UV-I 0 W/m 10,3 km/h (2 Bft)
17.04.2014 23:54 11,8 C 10,6 C 73 % 1013,0 hPa 0,0 l/m 0 min 0 min 0,0 UV-I 0 W/m 12,9 km/h (3 Bft)
17.04.2014 23:56 11,7 C 10,6 C 73 % 1013,0 hPa 0,0 l/m 0 min 0 min 0,0 UV-I 0 W/m 15,4 km/h (3 Bft)
17.04.2014 23:58 11,7 C 10,6 C 74 % 1012,9 hPa 0,0 l/m 0 min 0 min 0,0 UV-I 0 W/m 15,4 km/h (3 Bft)
_ Min-Zeit 05:26 04:42 16:00 23:58 - - - - - 00:02
Minimum _ 4,4 C 3,3 C 36 % 1012,9 hPa - - - - - 0,0 km/h (0 Bft)
_ Max-Zeit 15:48 16:22 05:20 00:38 00:00 08:24 19:24 13:52 13:52 14:38
Maximum _ 19,1 C 20,6 C 81 % 1026,5 hPa 0,0 l/m 2 min 2 min 3,3 UV-I 824 W/m 28,3 km/h
S-SO (4 Bft)
Durchschnitt _ 11,8 C 10,5 C 60 % 1020,3 hPa #0,0 l/m #8:18 h #12 min. 1,8 UV-I 376 W/m 8,1 km/h (2 Bft)
© 2014 W. Hausmann